<?xml version="1.0" encoding="UTF-8" standalone="no" ?>
<gpx xmlns="http://www.topografix.com/GPX/1/1" xmlns:xsi="http://www.w3.org/2001/XMLSchema-instance" xsi:schemaLocation="http://www.topografix.com/GPX/1/1 http://www.topografix.com/GPX/1/1/gpx.xsd" version="1.1" creator="VisuGPX - https://www.visugpx.com">
  <metadata>
    <name>pr 15 desaignes/ retourtour /les sauvages</name>
    <desc><![CDATA[balisage trop de couleur intersection mal indique combeneyre clôture passage fermè sinon ras château du vergier très beau]]></desc>
  </metadata>
  <trk>
    <name><![CDATA[Tracé 10 déc. 2015 08:13:54]]></name>
    <trkseg>
      <trkpt lat="44.99519" lon="4.51678">
        <ele>386</ele>
        <time>2015-12-10T07:13:54Z</time>
      </trkpt>
      <trkpt lat="44.99519" lon="4.51678">
        <ele>386</ele>
        <time>2015-12-10T07:14:32Z</time>
      </trkpt>
      <trkpt lat="44.99549" lon="4.51671">
        <ele>401</ele>
        <time>2015-12-10T07:15:29Z</time>
      </trkpt>
      <trkpt lat="44.99557" lon="4.51676">
        <ele>399</ele>
        <time>2015-12-10T07:15:35Z</time>
      </trkpt>
      <trkpt lat="44.99561" lon="4.51687">
        <ele>403</ele>
        <time>2015-12-10T07:15:44Z</time>
      </trkpt>
      <trkpt lat="44.99567" lon="4.51692">
        <ele>403</ele>
        <time>2015-12-10T07:15:52Z</time>
      </trkpt>
      <trkpt lat="44.99573" lon="4.51688">
        <ele>403</ele>
        <time>2015-12-10T07:15:56Z</time>
      </trkpt>
      <trkpt lat="44.99577" lon="4.51681">
        <ele>402</ele>
        <time>2015-12-10T07:16:00Z</time>
      </trkpt>
      <trkpt lat="44.99586" lon="4.51675">
        <ele>401</ele>
        <time>2015-12-10T07:16:05Z</time>
      </trkpt>
      <trkpt lat="44.99594" lon="4.51671">
        <ele>401</ele>
        <time>2015-12-10T07:16:09Z</time>
      </trkpt>
      <trkpt lat="44.99604" lon="4.51668">
        <ele>401</ele>
        <time>2015-12-10T07:16:13Z</time>
      </trkpt>
      <trkpt lat="44.99613" lon="4.51659">
        <ele>401</ele>
        <time>2015-12-10T07:16:17Z</time>
      </trkpt>
      <trkpt lat="44.99626" lon="4.51658">
        <ele>400</ele>
        <time>2015-12-10T07:16:21Z</time>
      </trkpt>
      <trkpt lat="44.99633" lon="4.51658">
        <ele>400</ele>
        <time>2015-12-10T07:16:25Z</time>
      </trkpt>
      <trkpt lat="44.99647" lon="4.5166">
        <ele>400</ele>
        <time>2015-12-10T07:16:30Z</time>
      </trkpt>
      <trkpt lat="44.99659" lon="4.51663">
        <ele>399</ele>
        <time>2015-12-10T07:16:35Z</time>
      </trkpt>
      <trkpt lat="44.99675" lon="4.51665">
        <ele>399</ele>
        <time>2015-12-10T07:16:39Z</time>
      </trkpt>
      <trkpt lat="44.99685" lon="4.51671">
        <ele>399</ele>
        <time>2015-12-10T07:16:43Z</time>
      </trkpt>
      <trkpt lat="44.99692" lon="4.51673">
        <ele>399</ele>
        <time>2015-12-10T07:16:46Z</time>
      </trkpt>
      <trkpt lat="44.99702" lon="4.51667">
        <ele>398</ele>
        <time>2015-12-10T07:16:50Z</time>
      </trkpt>
      <trkpt lat="44.99712" lon="4.51663">
        <ele>398</ele>
        <time>2015-12-10T07:16:54Z</time>
      </trkpt>
      <trkpt lat="44.9972" lon="4.51659">
        <ele>397</ele>
        <time>2015-12-10T07:16:58Z</time>
      </trkpt>
      <trkpt lat="44.99731" lon="4.51653">
        <ele>397</ele>
        <time>2015-12-10T07:17:03Z</time>
      </trkpt>
      <trkpt lat="44.9974" lon="4.51648">
        <ele>396</ele>
        <time>2015-12-10T07:17:06Z</time>
      </trkpt>
      <trkpt lat="44.9975" lon="4.51639">
        <ele>396</ele>
        <time>2015-12-10T07:17:10Z</time>
      </trkpt>
      <trkpt lat="44.99759" lon="4.51636">
        <ele>395</ele>
        <time>2015-12-10T07:17:14Z</time>
      </trkpt>
      <trkpt lat="44.99771" lon="4.51629">
        <ele>395</ele>
        <time>2015-12-10T07:17:18Z</time>
      </trkpt>
      <trkpt lat="44.99779" lon="4.51624">
        <ele>394</ele>
        <time>2015-12-10T07:17:21Z</time>
      </trkpt>
      <trkpt lat="44.99785" lon="4.51616">
        <ele>394</ele>
        <time>2015-12-10T07:17:24Z</time>
      </trkpt>
      <trkpt lat="44.99797" lon="4.51607">
        <ele>393</ele>
        <time>2015-12-10T07:17:28Z</time>
      </trkpt>
      <trkpt lat="44.99806" lon="4.51603">
        <ele>392</ele>
        <time>2015-12-10T07:17:31Z</time>
      </trkpt>
      <trkpt lat="44.99816" lon="4.51602">
        <ele>391</ele>
        <time>2015-12-10T07:17:35Z</time>
      </trkpt>
      <trkpt lat="44.99822" lon="4.51608">
        <ele>390</ele>
        <time>2015-12-10T07:17:39Z</time>
      </trkpt>
      <trkpt lat="44.99833" lon="4.51613">
        <ele>389</ele>
        <time>2015-12-10T07:17:43Z</time>
      </trkpt>
      <trkpt lat="44.99845" lon="4.51619">
        <ele>388</ele>
        <time>2015-12-10T07:17:46Z</time>
      </trkpt>
      <trkpt lat="44.99855" lon="4.51626">
        <ele>387</ele>
        <time>2015-12-10T07:17:50Z</time>
      </trkpt>
      <trkpt lat="44.99861" lon="4.51632">
        <ele>386</ele>
        <time>2015-12-10T07:17:53Z</time>
      </trkpt>
      <trkpt lat="44.9987" lon="4.5164">
        <ele>385</ele>
        <time>2015-12-10T07:17:57Z</time>
      </trkpt>
      <trkpt lat="44.9988" lon="4.51644">
        <ele>384</ele>
        <time>2015-12-10T07:18:00Z</time>
      </trkpt>
      <trkpt lat="44.99888" lon="4.5165">
        <ele>383</ele>
        <time>2015-12-10T07:18:05Z</time>
      </trkpt>
      <trkpt lat="44.99893" lon="4.51654">
        <ele>383</ele>
        <time>2015-12-10T07:18:08Z</time>
      </trkpt>
      <trkpt lat="44.99904" lon="4.51659">
        <ele>382</ele>
        <time>2015-12-10T07:18:12Z</time>
      </trkpt>
      <trkpt lat="44.99913" lon="4.51659">
        <ele>381</ele>
        <time>2015-12-10T07:18:15Z</time>
      </trkpt>
      <trkpt lat="44.99926" lon="4.51656">
        <ele>381</ele>
        <time>2015-12-10T07:18:19Z</time>
      </trkpt>
      <trkpt lat="44.99936" lon="4.51653">
        <ele>381</ele>
        <time>2015-12-10T07:18:22Z</time>
      </trkpt>
      <trkpt lat="44.99942" lon="4.51647">
        <ele>380</ele>
        <time>2015-12-10T07:18:26Z</time>
      </trkpt>
      <trkpt lat="44.99949" lon="4.5164">
        <ele>379</ele>
        <time>2015-12-10T07:18:30Z</time>
      </trkpt>
      <trkpt lat="44.99953" lon="4.51634">
        <ele>378</ele>
        <time>2015-12-10T07:18:34Z</time>
      </trkpt>
      <trkpt lat="44.99962" lon="4.51625">
        <ele>377</ele>
        <time>2015-12-10T07:18:39Z</time>
      </trkpt>
      <trkpt lat="44.99969" lon="4.51629">
        <ele>374</ele>
        <time>2015-12-10T07:18:51Z</time>
      </trkpt>
      <trkpt lat="44.99973" lon="4.51638">
        <ele>373</ele>
        <time>2015-12-10T07:18:58Z</time>
      </trkpt>
      <trkpt lat="44.99975" lon="4.5165">
        <ele>372</ele>
        <time>2015-12-10T07:19:09Z</time>
      </trkpt>
      <trkpt lat="44.99983" lon="4.51654">
        <ele>372</ele>
        <time>2015-12-10T07:19:34Z</time>
      </trkpt>
      <trkpt lat="44.99991" lon="4.51656">
        <ele>372</ele>
        <time>2015-12-10T07:19:41Z</time>
      </trkpt>
      <trkpt lat="44.99999" lon="4.51658">
        <ele>372</ele>
        <time>2015-12-10T07:19:45Z</time>
      </trkpt>
      <trkpt lat="45.00004" lon="4.51648">
        <ele>372</ele>
        <time>2015-12-10T07:20:05Z</time>
      </trkpt>
      <trkpt lat="44.99999" lon="4.51656">
        <ele>372</ele>
        <time>2015-12-10T07:20:12Z</time>
      </trkpt>
      <trkpt lat="44.99992" lon="4.51653">
        <ele>372</ele>
        <time>2015-12-10T07:20:40Z</time>
      </trkpt>
      <trkpt lat="44.99986" lon="4.51658">
        <ele>373</ele>
        <time>2015-12-10T07:20:49Z</time>
      </trkpt>
      <trkpt lat="44.99981" lon="4.51668">
        <ele>373</ele>
        <time>2015-12-10T07:20:58Z</time>
      </trkpt>
      <trkpt lat="44.99972" lon="4.51668">
        <ele>373</ele>
        <time>2015-12-10T07:21:06Z</time>
      </trkpt>
      <trkpt lat="44.99967" lon="4.51678">
        <ele>375</ele>
        <time>2015-12-10T07:21:57Z</time>
      </trkpt>
      <trkpt lat="44.99958" lon="4.51689">
        <ele>375</ele>
        <time>2015-12-10T07:22:02Z</time>
      </trkpt>
      <trkpt lat="44.99952" lon="4.51698">
        <ele>376</ele>
        <time>2015-12-10T07:22:07Z</time>
      </trkpt>
      <trkpt lat="44.99946" lon="4.51705">
        <ele>376</ele>
        <time>2015-12-10T07:22:12Z</time>
      </trkpt>
      <trkpt lat="44.99938" lon="4.51716">
        <ele>376</ele>
        <time>2015-12-10T07:22:17Z</time>
      </trkpt>
      <trkpt lat="44.99932" lon="4.51726">
        <ele>375</ele>
        <time>2015-12-10T07:22:21Z</time>
      </trkpt>
      <trkpt lat="44.99924" lon="4.51736">
        <ele>375</ele>
        <time>2015-12-10T07:22:25Z</time>
      </trkpt>
      <trkpt lat="44.9992" lon="4.51742">
        <ele>375</ele>
        <time>2015-12-10T07:22:28Z</time>
      </trkpt>
      <trkpt lat="44.9991" lon="4.5176">
        <ele>375</ele>
        <time>2015-12-10T07:22:33Z</time>
      </trkpt>
      <trkpt lat="44.999" lon="4.51775">
        <ele>375</ele>
        <time>2015-12-10T07:22:38Z</time>
      </trkpt>
      <trkpt lat="44.99896" lon="4.51783">
        <ele>375</ele>
        <time>2015-12-10T07:22:42Z</time>
      </trkpt>
      <trkpt lat="44.99888" lon="4.51796">
        <ele>375</ele>
        <time>2015-12-10T07:22:47Z</time>
      </trkpt>
      <trkpt lat="44.99883" lon="4.51806">
        <ele>375</ele>
        <time>2015-12-10T07:22:52Z</time>
      </trkpt>
      <trkpt lat="44.99876" lon="4.51822">
        <ele>375</ele>
        <time>2015-12-10T07:22:56Z</time>
      </trkpt>
      <trkpt lat="44.9987" lon="4.51838">
        <ele>374</ele>
        <time>2015-12-10T07:23:00Z</time>
      </trkpt>
      <trkpt lat="44.99858" lon="4.51862">
        <ele>374</ele>
        <time>2015-12-10T07:23:04Z</time>
      </trkpt>
      <trkpt lat="44.99839" lon="4.51874">
        <ele>375</ele>
        <time>2015-12-10T07:23:09Z</time>
      </trkpt>
      <trkpt lat="44.9983" lon="4.51869">
        <ele>374</ele>
        <time>2015-12-10T07:23:12Z</time>
      </trkpt>
      <trkpt lat="44.99824" lon="4.51876">
        <ele>374</ele>
        <time>2015-12-10T07:23:16Z</time>
      </trkpt>
      <trkpt lat="44.99817" lon="4.51881">
        <ele>374</ele>
        <time>2015-12-10T07:23:22Z</time>
      </trkpt>
      <trkpt lat="44.9981" lon="4.51892">
        <ele>373</ele>
        <time>2015-12-10T07:23:26Z</time>
      </trkpt>
      <trkpt lat="44.99808" lon="4.51907">
        <ele>373</ele>
        <time>2015-12-10T07:23:29Z</time>
      </trkpt>
      <trkpt lat="44.99806" lon="4.51933">
        <ele>372</ele>
        <time>2015-12-10T07:23:34Z</time>
      </trkpt>
      <trkpt lat="44.99805" lon="4.51949">
        <ele>372</ele>
        <time>2015-12-10T07:23:38Z</time>
      </trkpt>
      <trkpt lat="44.99811" lon="4.51973">
        <ele>373</ele>
        <time>2015-12-10T07:23:42Z</time>
      </trkpt>
      <trkpt lat="44.9981" lon="4.51987">
        <ele>373</ele>
        <time>2015-12-10T07:23:45Z</time>
      </trkpt>
      <trkpt lat="44.99805" lon="4.52006">
        <ele>374</ele>
        <time>2015-12-10T07:23:50Z</time>
      </trkpt>
      <trkpt lat="44.99804" lon="4.52023">
        <ele>374</ele>
        <time>2015-12-10T07:23:55Z</time>
      </trkpt>
      <trkpt lat="44.99801" lon="4.52042">
        <ele>374</ele>
        <time>2015-12-10T07:23:58Z</time>
      </trkpt>
      <trkpt lat="44.99798" lon="4.52061">
        <ele>375</ele>
        <time>2015-12-10T07:24:02Z</time>
      </trkpt>
      <trkpt lat="44.99796" lon="4.52081">
        <ele>375</ele>
        <time>2015-12-10T07:24:06Z</time>
      </trkpt>
      <trkpt lat="44.99794" lon="4.52102">
        <ele>374</ele>
        <time>2015-12-10T07:24:11Z</time>
      </trkpt>
      <trkpt lat="44.99791" lon="4.5212">
        <ele>374</ele>
        <time>2015-12-10T07:24:15Z</time>
      </trkpt>
      <trkpt lat="44.99789" lon="4.52129">
        <ele>374</ele>
        <time>2015-12-10T07:24:18Z</time>
      </trkpt>
      <trkpt lat="44.99786" lon="4.52147">
        <ele>374</ele>
        <time>2015-12-10T07:24:22Z</time>
      </trkpt>
      <trkpt lat="44.99787" lon="4.52155">
        <ele>376</ele>
        <time>2015-12-10T07:24:26Z</time>
      </trkpt>
      <trkpt lat="44.99786" lon="4.5217">
        <ele>377</ele>
        <time>2015-12-10T07:24:30Z</time>
      </trkpt>
      <trkpt lat="44.99785" lon="4.52187">
        <ele>377</ele>
        <time>2015-12-10T07:24:34Z</time>
      </trkpt>
      <trkpt lat="44.99783" lon="4.52204">
        <ele>378</ele>
        <time>2015-12-10T07:24:38Z</time>
      </trkpt>
      <trkpt lat="44.99782" lon="4.52216">
        <ele>378</ele>
        <time>2015-12-10T07:24:41Z</time>
      </trkpt>
      <trkpt lat="44.99784" lon="4.52233">
        <ele>379</ele>
        <time>2015-12-10T07:24:45Z</time>
      </trkpt>
      <trkpt lat="44.99785" lon="4.52246">
        <ele>379</ele>
        <time>2015-12-10T07:24:49Z</time>
      </trkpt>
      <trkpt lat="44.99787" lon="4.52263">
        <ele>380</ele>
        <time>2015-12-10T07:24:53Z</time>
      </trkpt>
      <trkpt lat="44.99788" lon="4.52273">
        <ele>380</ele>
        <time>2015-12-10T07:24:56Z</time>
      </trkpt>
      <trkpt lat="44.99789" lon="4.52286">
        <ele>381</ele>
        <time>2015-12-10T07:25:00Z</time>
      </trkpt>
      <trkpt lat="44.99791" lon="4.52304">
        <ele>382</ele>
        <time>2015-12-10T07:25:05Z</time>
      </trkpt>
      <trkpt lat="44.99792" lon="4.52318">
        <ele>383</ele>
        <time>2015-12-10T07:25:09Z</time>
      </trkpt>
      <trkpt lat="44.99796" lon="4.52335">
        <ele>384</ele>
        <time>2015-12-10T07:25:14Z</time>
      </trkpt>
      <trkpt lat="44.998" lon="4.52351">
        <ele>385</ele>
        <time>2015-12-10T07:25:18Z</time>
      </trkpt>
      <trkpt lat="44.99805" lon="4.52366">
        <ele>385</ele>
        <time>2015-12-10T07:25:22Z</time>
      </trkpt>
      <trkpt lat="44.99808" lon="4.52381">
        <ele>386</ele>
        <time>2015-12-10T07:25:26Z</time>
      </trkpt>
      <trkpt lat="44.9981" lon="4.52398">
        <ele>386</ele>
        <time>2015-12-10T07:25:31Z</time>
      </trkpt>
      <trkpt lat="44.99812" lon="4.5241">
        <ele>387</ele>
        <time>2015-12-10T07:25:36Z</time>
      </trkpt>
      <trkpt lat="44.9981" lon="4.52422">
        <ele>387</ele>
        <time>2015-12-10T07:25:46Z</time>
      </trkpt>
      <trkpt lat="44.99809" lon="4.52435">
        <ele>387</ele>
        <time>2015-12-10T07:25:51Z</time>
      </trkpt>
      <trkpt lat="44.99807" lon="4.52444">
        <ele>387</ele>
        <time>2015-12-10T07:25:54Z</time>
      </trkpt>
      <trkpt lat="44.99801" lon="4.5246">
        <ele>387</ele>
        <time>2015-12-10T07:25:58Z</time>
      </trkpt>
      <trkpt lat="44.99792" lon="4.52479">
        <ele>386</ele>
        <time>2015-12-10T07:26:03Z</time>
      </trkpt>
      <trkpt lat="44.99789" lon="4.52491">
        <ele>386</ele>
        <time>2015-12-10T07:26:06Z</time>
      </trkpt>
      <trkpt lat="44.99784" lon="4.52508">
        <ele>386</ele>
        <time>2015-12-10T07:26:10Z</time>
      </trkpt>
      <trkpt lat="44.99779" lon="4.5252">
        <ele>386</ele>
        <time>2015-12-10T07:26:13Z</time>
      </trkpt>
      <trkpt lat="44.99769" lon="4.52542">
        <ele>386</ele>
        <time>2015-12-10T07:26:18Z</time>
      </trkpt>
      <trkpt lat="44.99763" lon="4.52556">
        <ele>386</ele>
        <time>2015-12-10T07:26:22Z</time>
      </trkpt>
      <trkpt lat="44.99758" lon="4.52568">
        <ele>386</ele>
        <time>2015-12-10T07:26:25Z</time>
      </trkpt>
      <trkpt lat="44.99747" lon="4.52587">
        <ele>385</ele>
        <time>2015-12-10T07:26:30Z</time>
      </trkpt>
      <trkpt lat="44.9974" lon="4.52602">
        <ele>385</ele>
        <time>2015-12-10T07:26:34Z</time>
      </trkpt>
      <trkpt lat="44.99731" lon="4.52622">
        <ele>384</ele>
        <time>2015-12-10T07:26:39Z</time>
      </trkpt>
      <trkpt lat="44.99727" lon="4.52636">
        <ele>384</ele>
        <time>2015-12-10T07:26:43Z</time>
      </trkpt>
      <trkpt lat="44.99724" lon="4.52645">
        <ele>383</ele>
        <time>2015-12-10T07:26:46Z</time>
      </trkpt>
      <trkpt lat="44.99719" lon="4.52657">
        <ele>382</ele>
        <time>2015-12-10T07:26:50Z</time>
      </trkpt>
      <trkpt lat="44.99713" lon="4.52673">
        <ele>382</ele>
        <time>2015-12-10T07:26:55Z</time>
      </trkpt>
      <trkpt lat="44.99709" lon="4.52681">
        <ele>381</ele>
        <time>2015-12-10T07:26:58Z</time>
      </trkpt>
      <trkpt lat="44.99702" lon="4.52696">
        <ele>381</ele>
        <time>2015-12-10T07:27:03Z</time>
      </trkpt>
      <trkpt lat="44.99693" lon="4.52712">
        <ele>381</ele>
        <time>2015-12-10T07:27:08Z</time>
      </trkpt>
      <trkpt lat="44.99685" lon="4.52727">
        <ele>381</ele>
        <time>2015-12-10T07:27:12Z</time>
      </trkpt>
      <trkpt lat="44.99677" lon="4.52739">
        <ele>380</ele>
        <time>2015-12-10T07:27:16Z</time>
      </trkpt>
      <trkpt lat="44.99669" lon="4.5275">
        <ele>380</ele>
        <time>2015-12-10T07:27:20Z</time>
      </trkpt>
      <trkpt lat="44.9966" lon="4.52766">
        <ele>380</ele>
        <time>2015-12-10T07:27:25Z</time>
      </trkpt>
      <trkpt lat="44.99653" lon="4.52779">
        <ele>379</ele>
        <time>2015-12-10T07:27:30Z</time>
      </trkpt>
      <trkpt lat="44.99648" lon="4.52788">
        <ele>379</ele>
        <time>2015-12-10T07:27:33Z</time>
      </trkpt>
      <trkpt lat="44.99642" lon="4.52801">
        <ele>379</ele>
        <time>2015-12-10T07:27:37Z</time>
      </trkpt>
      <trkpt lat="44.99635" lon="4.52815">
        <ele>379</ele>
        <time>2015-12-10T07:27:41Z</time>
      </trkpt>
      <trkpt lat="44.99631" lon="4.52824">
        <ele>378</ele>
        <time>2015-12-10T07:27:44Z</time>
      </trkpt>
      <trkpt lat="44.99624" lon="4.52836">
        <ele>378</ele>
        <time>2015-12-10T07:27:48Z</time>
      </trkpt>
      <trkpt lat="44.99615" lon="4.52849">
        <ele>378</ele>
        <time>2015-12-10T07:27:53Z</time>
      </trkpt>
      <trkpt lat="44.99608" lon="4.5286">
        <ele>378</ele>
        <time>2015-12-10T07:27:57Z</time>
      </trkpt>
      <trkpt lat="44.99604" lon="4.52865">
        <ele>378</ele>
        <time>2015-12-10T07:28:00Z</time>
      </trkpt>
      <trkpt lat="44.99598" lon="4.52876">
        <ele>377</ele>
        <time>2015-12-10T07:28:04Z</time>
      </trkpt>
      <trkpt lat="44.99591" lon="4.52891">
        <ele>377</ele>
        <time>2015-12-10T07:28:08Z</time>
      </trkpt>
      <trkpt lat="44.99585" lon="4.52903">
        <ele>377</ele>
        <time>2015-12-10T07:28:12Z</time>
      </trkpt>
      <trkpt lat="44.99578" lon="4.52917">
        <ele>376</ele>
        <time>2015-12-10T07:28:16Z</time>
      </trkpt>
      <trkpt lat="44.99572" lon="4.52929">
        <ele>376</ele>
        <time>2015-12-10T07:28:20Z</time>
      </trkpt>
      <trkpt lat="44.99564" lon="4.52941">
        <ele>375</ele>
        <time>2015-12-10T07:28:25Z</time>
      </trkpt>
      <trkpt lat="44.99559" lon="4.52953">
        <ele>375</ele>
        <time>2015-12-10T07:28:29Z</time>
      </trkpt>
      <trkpt lat="44.99553" lon="4.52961">
        <ele>374</ele>
        <time>2015-12-10T07:28:32Z</time>
      </trkpt>
      <trkpt lat="44.9955" lon="4.52975">
        <ele>374</ele>
        <time>2015-12-10T07:28:37Z</time>
      </trkpt>
      <trkpt lat="44.99543" lon="4.52988">
        <ele>374</ele>
        <time>2015-12-10T07:28:41Z</time>
      </trkpt>
      <trkpt lat="44.99536" lon="4.53002">
        <ele>374</ele>
        <time>2015-12-10T07:28:46Z</time>
      </trkpt>
      <trkpt lat="44.99526" lon="4.53005">
        <ele>374</ele>
        <time>2015-12-10T07:28:50Z</time>
      </trkpt>
      <trkpt lat="44.99519" lon="4.53006">
        <ele>374</ele>
        <time>2015-12-10T07:28:53Z</time>
      </trkpt>
      <trkpt lat="44.9951" lon="4.53012">
        <ele>374</ele>
        <time>2015-12-10T07:28:57Z</time>
      </trkpt>
      <trkpt lat="44.995" lon="4.53008">
        <ele>373</ele>
        <time>2015-12-10T07:29:02Z</time>
      </trkpt>
      <trkpt lat="44.99493" lon="4.53007">
        <ele>373</ele>
        <time>2015-12-10T07:29:05Z</time>
      </trkpt>
      <trkpt lat="44.99487" lon="4.53004">
        <ele>372</ele>
        <time>2015-12-10T07:29:08Z</time>
      </trkpt>
      <trkpt lat="44.99476" lon="4.52995">
        <ele>371</ele>
        <time>2015-12-10T07:29:13Z</time>
      </trkpt>
      <trkpt lat="44.99469" lon="4.52989">
        <ele>371</ele>
        <time>2015-12-10T07:29:16Z</time>
      </trkpt>
      <trkpt lat="44.99459" lon="4.52982">
        <ele>370</ele>
        <time>2015-12-10T07:29:20Z</time>
      </trkpt>
      <trkpt lat="44.99448" lon="4.52978">
        <ele>370</ele>
        <time>2015-12-10T07:29:24Z</time>
      </trkpt>
      <trkpt lat="44.99439" lon="4.5298">
        <ele>369</ele>
        <time>2015-12-10T07:29:28Z</time>
      </trkpt>
      <trkpt lat="44.99431" lon="4.52984">
        <ele>369</ele>
        <time>2015-12-10T07:29:32Z</time>
      </trkpt>
      <trkpt lat="44.99422" lon="4.52989">
        <ele>369</ele>
        <time>2015-12-10T07:29:36Z</time>
      </trkpt>
      <trkpt lat="44.99413" lon="4.52996">
        <ele>369</ele>
        <time>2015-12-10T07:29:40Z</time>
      </trkpt>
      <trkpt lat="44.99404" lon="4.53005">
        <ele>368</ele>
        <time>2015-12-10T07:29:44Z</time>
      </trkpt>
      <trkpt lat="44.99395" lon="4.53014">
        <ele>368</ele>
        <time>2015-12-10T07:29:49Z</time>
      </trkpt>
      <trkpt lat="44.99387" lon="4.53017">
        <ele>368</ele>
        <time>2015-12-10T07:29:54Z</time>
      </trkpt>
      <trkpt lat="44.9938" lon="4.53024">
        <ele>368</ele>
        <time>2015-12-10T07:29:58Z</time>
      </trkpt>
      <trkpt lat="44.99369" lon="4.53036">
        <ele>367</ele>
        <time>2015-12-10T07:30:03Z</time>
      </trkpt>
      <trkpt lat="44.99359" lon="4.53046">
        <ele>366</ele>
        <time>2015-12-10T07:30:07Z</time>
      </trkpt>
      <trkpt lat="44.9935" lon="4.53058">
        <ele>366</ele>
        <time>2015-12-10T07:30:11Z</time>
      </trkpt>
      <trkpt lat="44.99338" lon="4.53065">
        <ele>365</ele>
        <time>2015-12-10T07:30:16Z</time>
      </trkpt>
      <trkpt lat="44.99329" lon="4.5307">
        <ele>365</ele>
        <time>2015-12-10T07:30:20Z</time>
      </trkpt>
      <trkpt lat="44.9932" lon="4.53072">
        <ele>365</ele>
        <time>2015-12-10T07:30:24Z</time>
      </trkpt>
      <trkpt lat="44.9931" lon="4.53072">
        <ele>365</ele>
        <time>2015-12-10T07:30:29Z</time>
      </trkpt>
      <trkpt lat="44.99303" lon="4.53078">
        <ele>365</ele>
        <time>2015-12-10T07:30:33Z</time>
      </trkpt>
      <trkpt lat="44.99299" lon="4.53091">
        <ele>364</ele>
        <time>2015-12-10T07:30:37Z</time>
      </trkpt>
      <trkpt lat="44.99296" lon="4.53106">
        <ele>364</ele>
        <time>2015-12-10T07:30:41Z</time>
      </trkpt>
      <trkpt lat="44.99298" lon="4.53117">
        <ele>362</ele>
        <time>2015-12-10T07:30:47Z</time>
      </trkpt>
      <trkpt lat="44.99304" lon="4.53127">
        <ele>361</ele>
        <time>2015-12-10T07:30:52Z</time>
      </trkpt>
      <trkpt lat="44.99308" lon="4.53138">
        <ele>360</ele>
        <time>2015-12-10T07:30:56Z</time>
      </trkpt>
      <trkpt lat="44.99315" lon="4.53147">
        <ele>359</ele>
        <time>2015-12-10T07:31:00Z</time>
      </trkpt>
      <trkpt lat="44.99322" lon="4.53158">
        <ele>358</ele>
        <time>2015-12-10T07:31:05Z</time>
      </trkpt>
      <trkpt lat="44.99322" lon="4.53168">
        <ele>357</ele>
        <time>2015-12-10T07:31:08Z</time>
      </trkpt>
      <trkpt lat="44.99315" lon="4.53175">
        <ele>356</ele>
        <time>2015-12-10T07:31:17Z</time>
      </trkpt>
      <trkpt lat="44.99309" lon="4.53168">
        <ele>355</ele>
        <time>2015-12-10T07:31:28Z</time>
      </trkpt>
      <trkpt lat="44.99302" lon="4.53166">
        <ele>356</ele>
        <time>2015-12-10T07:31:40Z</time>
      </trkpt>
      <trkpt lat="44.99294" lon="4.53165">
        <ele>355</ele>
        <time>2015-12-10T07:31:48Z</time>
      </trkpt>
      <trkpt lat="44.99288" lon="4.53166">
        <ele>354</ele>
        <time>2015-12-10T07:31:52Z</time>
      </trkpt>
      <trkpt lat="44.99279" lon="4.53167">
        <ele>354</ele>
        <time>2015-12-10T07:31:57Z</time>
      </trkpt>
      <trkpt lat="44.99272" lon="4.53169">
        <ele>353</ele>
        <time>2015-12-10T07:32:02Z</time>
      </trkpt>
      <trkpt lat="44.99264" lon="4.53171">
        <ele>352</ele>
        <time>2015-12-10T07:32:07Z</time>
      </trkpt>
      <trkpt lat="44.99254" lon="4.53168">
        <ele>351</ele>
        <time>2015-12-10T07:32:12Z</time>
      </trkpt>
      <trkpt lat="44.99246" lon="4.53166">
        <ele>351</ele>
        <time>2015-12-10T07:32:15Z</time>
      </trkpt>
      <trkpt lat="44.99234" lon="4.53163">
        <ele>351</ele>
        <time>2015-12-10T07:32:20Z</time>
      </trkpt>
      <trkpt lat="44.99223" lon="4.5317">
        <ele>350</ele>
        <time>2015-12-10T07:32:24Z</time>
      </trkpt>
      <trkpt lat="44.99213" lon="4.53172">
        <ele>350</ele>
        <time>2015-12-10T07:32:29Z</time>
      </trkpt>
      <trkpt lat="44.99206" lon="4.53177">
        <ele>349</ele>
        <time>2015-12-10T07:32:33Z</time>
      </trkpt>
      <trkpt lat="44.99198" lon="4.53175">
        <ele>349</ele>
        <time>2015-12-10T07:32:39Z</time>
      </trkpt>
      <trkpt lat="44.9919" lon="4.53175">
        <ele>349</ele>
        <time>2015-12-10T07:32:46Z</time>
      </trkpt>
      <trkpt lat="44.99182" lon="4.53175">
        <ele>349</ele>
        <time>2015-12-10T07:32:51Z</time>
      </trkpt>
      <trkpt lat="44.99172" lon="4.53175">
        <ele>349</ele>
        <time>2015-12-10T07:32:56Z</time>
      </trkpt>
      <trkpt lat="44.99164" lon="4.5318">
        <ele>349</ele>
        <time>2015-12-10T07:33:01Z</time>
      </trkpt>
      <trkpt lat="44.99158" lon="4.53184">
        <ele>349</ele>
        <time>2015-12-10T07:33:04Z</time>
      </trkpt>
      <trkpt lat="44.99149" lon="4.53191">
        <ele>348</ele>
        <time>2015-12-10T07:33:08Z</time>
      </trkpt>
      <trkpt lat="44.99139" lon="4.53201">
        <ele>348</ele>
        <time>2015-12-10T07:33:13Z</time>
      </trkpt>
      <trkpt lat="44.99133" lon="4.53202">
        <ele>348</ele>
        <time>2015-12-10T07:33:16Z</time>
      </trkpt>
      <trkpt lat="44.99124" lon="4.53209">
        <ele>349</ele>
        <time>2015-12-10T07:33:21Z</time>
      </trkpt>
      <trkpt lat="44.99118" lon="4.53216">
        <ele>349</ele>
        <time>2015-12-10T07:33:27Z</time>
      </trkpt>
      <trkpt lat="44.99113" lon="4.53223">
        <ele>349</ele>
        <time>2015-12-10T07:33:32Z</time>
      </trkpt>
      <trkpt lat="44.99113" lon="4.53233">
        <ele>348</ele>
        <time>2015-12-10T07:33:36Z</time>
      </trkpt>
      <trkpt lat="44.99111" lon="4.53245">
        <ele>348</ele>
        <time>2015-12-10T07:33:40Z</time>
      </trkpt>
      <trkpt lat="44.9911" lon="4.5326">
        <ele>347</ele>
        <time>2015-12-10T07:33:45Z</time>
      </trkpt>
      <trkpt lat="44.99114" lon="4.53269">
        <ele>347</ele>
        <time>2015-12-10T07:33:50Z</time>
      </trkpt>
      <trkpt lat="44.99116" lon="4.53278">
        <ele>346</ele>
        <time>2015-12-10T07:33:54Z</time>
      </trkpt>
      <trkpt lat="44.99114" lon="4.53294">
        <ele>345</ele>
        <time>2015-12-10T07:33:59Z</time>
      </trkpt>
      <trkpt lat="44.99112" lon="4.53304">
        <ele>345</ele>
        <time>2015-12-10T07:34:03Z</time>
      </trkpt>
      <trkpt lat="44.99112" lon="4.53313">
        <ele>344</ele>
        <time>2015-12-10T07:34:07Z</time>
      </trkpt>
      <trkpt lat="44.99114" lon="4.53324">
        <ele>342</ele>
        <time>2015-12-10T07:34:14Z</time>
      </trkpt>
      <trkpt lat="44.9911" lon="4.53335">
        <ele>341</ele>
        <time>2015-12-10T07:34:20Z</time>
      </trkpt>
      <trkpt lat="44.99106" lon="4.53343">
        <ele>340</ele>
        <time>2015-12-10T07:34:24Z</time>
      </trkpt>
      <trkpt lat="44.99101" lon="4.53359">
        <ele>339</ele>
        <time>2015-12-10T07:34:29Z</time>
      </trkpt>
      <trkpt lat="44.99093" lon="4.53373">
        <ele>337</ele>
        <time>2015-12-10T07:34:33Z</time>
      </trkpt>
      <trkpt lat="44.99087" lon="4.53387">
        <ele>336</ele>
        <time>2015-12-10T07:34:38Z</time>
      </trkpt>
      <trkpt lat="44.99085" lon="4.53398">
        <ele>335</ele>
        <time>2015-12-10T07:34:42Z</time>
      </trkpt>
      <trkpt lat="44.99084" lon="4.53411">
        <ele>334</ele>
        <time>2015-12-10T07:34:46Z</time>
      </trkpt>
      <trkpt lat="44.99083" lon="4.53423">
        <ele>333</ele>
        <time>2015-12-10T07:34:51Z</time>
      </trkpt>
      <trkpt lat="44.99081" lon="4.53433">
        <ele>333</ele>
        <time>2015-12-10T07:34:54Z</time>
      </trkpt>
      <trkpt lat="44.99077" lon="4.53448">
        <ele>332</ele>
        <time>2015-12-10T07:34:58Z</time>
      </trkpt>
      <trkpt lat="44.99072" lon="4.53467">
        <ele>331</ele>
        <time>2015-12-10T07:35:03Z</time>
      </trkpt>
      <trkpt lat="44.99069" lon="4.53481">
        <ele>329</ele>
        <time>2015-12-10T07:35:08Z</time>
      </trkpt>
      <trkpt lat="44.99069" lon="4.53491">
        <ele>329</ele>
        <time>2015-12-10T07:35:11Z</time>
      </trkpt>
      <trkpt lat="44.9907" lon="4.53499">
        <ele>329</ele>
        <time>2015-12-10T07:35:14Z</time>
      </trkpt>
      <trkpt lat="44.99069" lon="4.53508">
        <ele>328</ele>
        <time>2015-12-10T07:35:18Z</time>
      </trkpt>
      <trkpt lat="44.99068" lon="4.53521">
        <ele>327</ele>
        <time>2015-12-10T07:35:23Z</time>
      </trkpt>
      <trkpt lat="44.99069" lon="4.5353">
        <ele>327</ele>
        <time>2015-12-10T07:35:26Z</time>
      </trkpt>
      <trkpt lat="44.9907" lon="4.53544">
        <ele>326</ele>
        <time>2015-12-10T07:35:30Z</time>
      </trkpt>
      <trkpt lat="44.99071" lon="4.53553">
        <ele>325</ele>
        <time>2015-12-10T07:35:33Z</time>
      </trkpt>
      <trkpt lat="44.9907" lon="4.53568">
        <ele>323</ele>
        <time>2015-12-10T07:35:37Z</time>
      </trkpt>
      <trkpt lat="44.99066" lon="4.53583">
        <ele>322</ele>
        <time>2015-12-10T07:35:42Z</time>
      </trkpt>
      <trkpt lat="44.99059" lon="4.5359">
        <ele>320</ele>
        <time>2015-12-10T07:35:47Z</time>
      </trkpt>
      <trkpt lat="44.99052" lon="4.53593">
        <ele>319</ele>
        <time>2015-12-10T07:35:52Z</time>
      </trkpt>
      <trkpt lat="44.99046" lon="4.53599">
        <ele>318</ele>
        <time>2015-12-10T07:35:56Z</time>
      </trkpt>
      <trkpt lat="44.99043" lon="4.53615">
        <ele>317</ele>
        <time>2015-12-10T07:36:00Z</time>
      </trkpt>
      <trkpt lat="44.99044" lon="4.53626">
        <ele>316</ele>
        <time>2015-12-10T07:36:05Z</time>
      </trkpt>
      <trkpt lat="44.99047" lon="4.53637">
        <ele>315</ele>
        <time>2015-12-10T07:36:11Z</time>
      </trkpt>
      <trkpt lat="44.99052" lon="4.53641">
        <ele>313</ele>
        <time>2015-12-10T07:36:15Z</time>
      </trkpt>
      <trkpt lat="44.99053" lon="4.53657">
        <ele>312</ele>
        <time>2015-12-10T07:36:18Z</time>
      </trkpt>
      <trkpt lat="44.99059" lon="4.53673">
        <ele>310</ele>
        <time>2015-12-10T07:36:23Z</time>
      </trkpt>
      <trkpt lat="44.99062" lon="4.53683">
        <ele>309</ele>
        <time>2015-12-10T07:36:27Z</time>
      </trkpt>
      <trkpt lat="44.99068" lon="4.53691">
        <ele>305</ele>
        <time>2015-12-10T07:36:36Z</time>
      </trkpt>
      <trkpt lat="44.99071" lon="4.53698">
        <ele>303</ele>
        <time>2015-12-10T07:36:40Z</time>
      </trkpt>
      <trkpt lat="44.99071" lon="4.53711">
        <ele>300</ele>
        <time>2015-12-10T07:36:45Z</time>
      </trkpt>
      <trkpt lat="44.99071" lon="4.53727">
        <ele>298</ele>
        <time>2015-12-10T07:36:50Z</time>
      </trkpt>
      <trkpt lat="44.99069" lon="4.53739">
        <ele>295</ele>
        <time>2015-12-10T07:36:55Z</time>
      </trkpt>
      <trkpt lat="44.99067" lon="4.53751">
        <ele>292</ele>
        <time>2015-12-10T07:37:00Z</time>
      </trkpt>
      <trkpt lat="44.99063" lon="4.53761">
        <ele>290</ele>
        <time>2015-12-10T07:37:03Z</time>
      </trkpt>
      <trkpt lat="44.9906" lon="4.53771">
        <ele>287</ele>
        <time>2015-12-10T07:37:08Z</time>
      </trkpt>
      <trkpt lat="44.99058" lon="4.5378">
        <ele>285</ele>
        <time>2015-12-10T07:37:13Z</time>
      </trkpt>
      <trkpt lat="44.99055" lon="4.53792">
        <ele>283</ele>
        <time>2015-12-10T07:37:17Z</time>
      </trkpt>
      <trkpt lat="44.99053" lon="4.53805">
        <ele>281</ele>
        <time>2015-12-10T07:37:21Z</time>
      </trkpt>
      <trkpt lat="44.99055" lon="4.53816">
        <ele>275</ele>
        <time>2015-12-10T07:37:32Z</time>
      </trkpt>
      <trkpt lat="44.99061" lon="4.53825">
        <ele>269</ele>
        <time>2015-12-10T07:37:43Z</time>
      </trkpt>
      <trkpt lat="44.99069" lon="4.53827">
        <ele>263</ele>
        <time>2015-12-10T07:37:56Z</time>
      </trkpt>
      <trkpt lat="44.99071" lon="4.53826">
        <ele>262</ele>
        <time>2015-12-10T07:38:59Z</time>
      </trkpt>
      <trkpt lat="44.9908" lon="4.53824">
        <ele>263</ele>
        <time>2015-12-10T07:39:03Z</time>
      </trkpt>
      <trkpt lat="44.99084" lon="4.53828">
        <ele>263</ele>
        <time>2015-12-10T07:39:08Z</time>
      </trkpt>
      <trkpt lat="44.99091" lon="4.53836">
        <ele>263</ele>
        <time>2015-12-10T07:39:12Z</time>
      </trkpt>
      <trkpt lat="44.99094" lon="4.53845">
        <ele>263</ele>
        <time>2015-12-10T07:39:15Z</time>
      </trkpt>
      <trkpt lat="44.99098" lon="4.5385">
        <ele>263</ele>
        <time>2015-12-10T07:39:19Z</time>
      </trkpt>
      <trkpt lat="44.99105" lon="4.53856">
        <ele>262</ele>
        <time>2015-12-10T07:39:22Z</time>
      </trkpt>
      <trkpt lat="44.99114" lon="4.53855">
        <ele>262</ele>
        <time>2015-12-10T07:39:27Z</time>
      </trkpt>
      <trkpt lat="44.99124" lon="4.53856">
        <ele>262</ele>
        <time>2015-12-10T07:39:31Z</time>
      </trkpt>
      <trkpt lat="44.99132" lon="4.53861">
        <ele>261</ele>
        <time>2015-12-10T07:39:35Z</time>
      </trkpt>
      <trkpt lat="44.99138" lon="4.53869">
        <ele>261</ele>
        <time>2015-12-10T07:39:41Z</time>
      </trkpt>
      <trkpt lat="44.99144" lon="4.53874">
        <ele>260</ele>
        <time>2015-12-10T07:39:45Z</time>
      </trkpt>
      <trkpt lat="44.99154" lon="4.53878">
        <ele>259</ele>
        <time>2015-12-10T07:39:50Z</time>
      </trkpt>
      <trkpt lat="44.99161" lon="4.53881">
        <ele>258</ele>
        <time>2015-12-10T07:39:54Z</time>
      </trkpt>
      <trkpt lat="44.99173" lon="4.53882">
        <ele>257</ele>
        <time>2015-12-10T07:39:58Z</time>
      </trkpt>
      <trkpt lat="44.99185" lon="4.53882">
        <ele>257</ele>
        <time>2015-12-10T07:40:01Z</time>
      </trkpt>
      <trkpt lat="44.99201" lon="4.53892">
        <ele>256</ele>
        <time>2015-12-10T07:40:06Z</time>
      </trkpt>
      <trkpt lat="44.99214" lon="4.53896">
        <ele>255</ele>
        <time>2015-12-10T07:40:10Z</time>
      </trkpt>
      <trkpt lat="44.99228" lon="4.53905">
        <ele>254</ele>
        <time>2015-12-10T07:40:14Z</time>
      </trkpt>
      <trkpt lat="44.99235" lon="4.53913">
        <ele>253</ele>
        <time>2015-12-10T07:40:18Z</time>
      </trkpt>
      <trkpt lat="44.99248" lon="4.53919">
        <ele>252</ele>
        <time>2015-12-10T07:40:23Z</time>
      </trkpt>
      <trkpt lat="44.99256" lon="4.53926">
        <ele>251</ele>
        <time>2015-12-10T07:40:27Z</time>
      </trkpt>
      <trkpt lat="44.99261" lon="4.5393">
        <ele>250</ele>
        <time>2015-12-10T07:40:31Z</time>
      </trkpt>
      <trkpt lat="44.99269" lon="4.5394">
        <ele>249</ele>
        <time>2015-12-10T07:40:35Z</time>
      </trkpt>
      <trkpt lat="44.99277" lon="4.53947">
        <ele>248</ele>
        <time>2015-12-10T07:40:38Z</time>
      </trkpt>
      <trkpt lat="44.99282" lon="4.5395">
        <ele>248</ele>
        <time>2015-12-10T07:40:42Z</time>
      </trkpt>
      <trkpt lat="44.9929" lon="4.53955">
        <ele>247</ele>
        <time>2015-12-10T07:40:47Z</time>
      </trkpt>
      <trkpt lat="44.99299" lon="4.5397">
        <ele>245</ele>
        <time>2015-12-10T07:40:52Z</time>
      </trkpt>
      <trkpt lat="44.99305" lon="4.53979">
        <ele>244</ele>
        <time>2015-12-10T07:40:56Z</time>
      </trkpt>
      <trkpt lat="44.99312" lon="4.53986">
        <ele>243</ele>
        <time>2015-12-10T07:40:59Z</time>
      </trkpt>
      <trkpt lat="44.9932" lon="4.53997">
        <ele>242</ele>
        <time>2015-12-10T07:41:03Z</time>
      </trkpt>
      <trkpt lat="44.99329" lon="4.54011">
        <ele>240</ele>
        <time>2015-12-10T07:41:08Z</time>
      </trkpt>
      <trkpt lat="44.99334" lon="4.54022">
        <ele>239</ele>
        <time>2015-12-10T07:41:13Z</time>
      </trkpt>
      <trkpt lat="44.99341" lon="4.54032">
        <ele>237</ele>
        <time>2015-12-10T07:41:17Z</time>
      </trkpt>
      <trkpt lat="44.99348" lon="4.54036">
        <ele>236</ele>
        <time>2015-12-10T07:41:22Z</time>
      </trkpt>
      <trkpt lat="44.99355" lon="4.54039">
        <ele>235</ele>
        <time>2015-12-10T07:41:26Z</time>
      </trkpt>
      <trkpt lat="44.99358" lon="4.54041">
        <ele>234</ele>
        <time>2015-12-10T07:41:30Z</time>
      </trkpt>
      <trkpt lat="44.99369" lon="4.54046">
        <ele>233</ele>
        <time>2015-12-10T07:41:34Z</time>
      </trkpt>
      <trkpt lat="44.99381" lon="4.54052">
        <ele>231</ele>
        <time>2015-12-10T07:41:39Z</time>
      </trkpt>
      <trkpt lat="44.99387" lon="4.5406">
        <ele>230</ele>
        <time>2015-12-10T07:41:44Z</time>
      </trkpt>
      <trkpt lat="44.99392" lon="4.54071">
        <ele>228</ele>
        <time>2015-12-10T07:41:50Z</time>
      </trkpt>
      <trkpt lat="44.99392" lon="4.54089">
        <ele>226</ele>
        <time>2015-12-10T07:41:55Z</time>
      </trkpt>
      <trkpt lat="44.99389" lon="4.54104">
        <ele>225</ele>
        <time>2015-12-10T07:41:59Z</time>
      </trkpt>
      <trkpt lat="44.99385" lon="4.54119">
        <ele>223</ele>
        <time>2015-12-10T07:42:04Z</time>
      </trkpt>
      <trkpt lat="44.99384" lon="4.5413">
        <ele>222</ele>
        <time>2015-12-10T07:42:08Z</time>
      </trkpt>
      <trkpt lat="44.99382" lon="4.54144">
        <ele>220</ele>
        <time>2015-12-10T07:42:12Z</time>
      </trkpt>
      <trkpt lat="44.9938" lon="4.54158">
        <ele>218</ele>
        <time>2015-12-10T07:42:17Z</time>
      </trkpt>
      <trkpt lat="44.99381" lon="4.54168">
        <ele>217</ele>
        <time>2015-12-10T07:42:21Z</time>
      </trkpt>
      <trkpt lat="44.99382" lon="4.5418">
        <ele>215</ele>
        <time>2015-12-10T07:42:25Z</time>
      </trkpt>
      <trkpt lat="44.99385" lon="4.54196">
        <ele>213</ele>
        <time>2015-12-10T07:42:30Z</time>
      </trkpt>
      <trkpt lat="44.99387" lon="4.54206">
        <ele>212</ele>
        <time>2015-12-10T07:42:33Z</time>
      </trkpt>
      <trkpt lat="44.99392" lon="4.54221">
        <ele>210</ele>
        <time>2015-12-10T07:42:38Z</time>
      </trkpt>
      <trkpt lat="44.99395" lon="4.54229">
        <ele>210</ele>
        <time>2015-12-10T07:42:41Z</time>
      </trkpt>
      <trkpt lat="44.99401" lon="4.54237">
        <ele>208</ele>
        <time>2015-12-10T07:42:45Z</time>
      </trkpt>
      <trkpt lat="44.99409" lon="4.54243">
        <ele>207</ele>
        <time>2015-12-10T07:42:50Z</time>
      </trkpt>
      <trkpt lat="44.99416" lon="4.54246">
        <ele>206</ele>
        <time>2015-12-10T07:42:54Z</time>
      </trkpt>
      <trkpt lat="44.99424" lon="4.54246">
        <ele>205</ele>
        <time>2015-12-10T07:42:58Z</time>
      </trkpt>
      <trkpt lat="44.99434" lon="4.54245">
        <ele>203</ele>
        <time>2015-12-10T07:43:02Z</time>
      </trkpt>
      <trkpt lat="44.99443" lon="4.54249">
        <ele>202</ele>
        <time>2015-12-10T07:43:06Z</time>
      </trkpt>
      <trkpt lat="44.99448" lon="4.54251">
        <ele>201</ele>
        <time>2015-12-10T07:43:09Z</time>
      </trkpt>
      <trkpt lat="44.99457" lon="4.54257">
        <ele>200</ele>
        <time>2015-12-10T07:43:14Z</time>
      </trkpt>
      <trkpt lat="44.99466" lon="4.54259">
        <ele>199</ele>
        <time>2015-12-10T07:43:18Z</time>
      </trkpt>
      <trkpt lat="44.99476" lon="4.54265">
        <ele>198</ele>
        <time>2015-12-10T07:43:22Z</time>
      </trkpt>
      <trkpt lat="44.99487" lon="4.54269">
        <ele>197</ele>
        <time>2015-12-10T07:43:26Z</time>
      </trkpt>
      <trkpt lat="44.99493" lon="4.54273">
        <ele>196</ele>
        <time>2015-12-10T07:43:29Z</time>
      </trkpt>
      <trkpt lat="44.99503" lon="4.54277">
        <ele>195</ele>
        <time>2015-12-10T07:43:32Z</time>
      </trkpt>
      <trkpt lat="44.99514" lon="4.54281">
        <ele>194</ele>
        <time>2015-12-10T07:43:36Z</time>
      </trkpt>
      <trkpt lat="44.99527" lon="4.54288">
        <ele>192</ele>
        <time>2015-12-10T07:43:41Z</time>
      </trkpt>
      <trkpt lat="44.99536" lon="4.54291">
        <ele>191</ele>
        <time>2015-12-10T07:43:45Z</time>
      </trkpt>
      <trkpt lat="44.99542" lon="4.54295">
        <ele>191</ele>
        <time>2015-12-10T07:43:48Z</time>
      </trkpt>
      <trkpt lat="44.99553" lon="4.54298">
        <ele>190</ele>
        <time>2015-12-10T07:43:52Z</time>
      </trkpt>
      <trkpt lat="44.99561" lon="4.543">
        <ele>189</ele>
        <time>2015-12-10T07:43:56Z</time>
      </trkpt>
      <trkpt lat="44.99569" lon="4.54299">
        <ele>188</ele>
        <time>2015-12-10T07:44:00Z</time>
      </trkpt>
      <trkpt lat="44.99577" lon="4.54298">
        <ele>187</ele>
        <time>2015-12-10T07:44:04Z</time>
      </trkpt>
      <trkpt lat="44.99584" lon="4.54295">
        <ele>186</ele>
        <time>2015-12-10T07:44:08Z</time>
      </trkpt>
      <trkpt lat="44.99591" lon="4.54291">
        <ele>185</ele>
        <time>2015-12-10T07:44:12Z</time>
      </trkpt>
      <trkpt lat="44.99597" lon="4.54286">
        <ele>184</ele>
        <time>2015-12-10T07:44:16Z</time>
      </trkpt>
      <trkpt lat="44.99604" lon="4.54281">
        <ele>183</ele>
        <time>2015-12-10T07:44:21Z</time>
      </trkpt>
      <trkpt lat="44.99616" lon="4.54272">
        <ele>181</ele>
        <time>2015-12-10T07:44:26Z</time>
      </trkpt>
      <trkpt lat="44.99628" lon="4.54269">
        <ele>179</ele>
        <time>2015-12-10T07:44:30Z</time>
      </trkpt>
      <trkpt lat="44.9964" lon="4.54262">
        <ele>178</ele>
        <time>2015-12-10T07:44:34Z</time>
      </trkpt>
      <trkpt lat="44.9965" lon="4.54254">
        <ele>177</ele>
        <time>2015-12-10T07:44:38Z</time>
      </trkpt>
      <trkpt lat="44.99662" lon="4.54249">
        <ele>175</ele>
        <time>2015-12-10T07:44:42Z</time>
      </trkpt>
      <trkpt lat="44.9967" lon="4.54247">
        <ele>175</ele>
        <time>2015-12-10T07:44:45Z</time>
      </trkpt>
      <trkpt lat="44.99691" lon="4.54245">
        <ele>174</ele>
        <time>2015-12-10T07:44:49Z</time>
      </trkpt>
      <trkpt lat="44.99694" lon="4.54256">
        <ele>172</ele>
        <time>2015-12-10T07:44:54Z</time>
      </trkpt>
      <trkpt lat="44.99692" lon="4.54266">
        <ele>171</ele>
        <time>2015-12-10T07:44:58Z</time>
      </trkpt>
      <trkpt lat="44.99694" lon="4.5428">
        <ele>169</ele>
        <time>2015-12-10T07:45:02Z</time>
      </trkpt>
      <trkpt lat="44.99697" lon="4.54293">
        <ele>167</ele>
        <time>2015-12-10T07:45:06Z</time>
      </trkpt>
      <trkpt lat="44.99699" lon="4.54304">
        <ele>166</ele>
        <time>2015-12-10T07:45:09Z</time>
      </trkpt>
      <trkpt lat="44.99701" lon="4.54315">
        <ele>165</ele>
        <time>2015-12-10T07:45:13Z</time>
      </trkpt>
      <trkpt lat="44.99701" lon="4.54326">
        <ele>163</ele>
        <time>2015-12-10T07:45:16Z</time>
      </trkpt>
      <trkpt lat="44.99703" lon="4.54341">
        <ele>161</ele>
        <time>2015-12-10T07:45:21Z</time>
      </trkpt>
      <trkpt lat="44.99704" lon="4.5435">
        <ele>160</ele>
        <time>2015-12-10T07:45:24Z</time>
      </trkpt>
      <trkpt lat="44.99705" lon="4.54361">
        <ele>159</ele>
        <time>2015-12-10T07:45:28Z</time>
      </trkpt>
      <trkpt lat="44.99705" lon="4.54374">
        <ele>157</ele>
        <time>2015-12-10T07:45:33Z</time>
      </trkpt>
      <trkpt lat="44.99701" lon="4.54386">
        <ele>155</ele>
        <time>2015-12-10T07:45:37Z</time>
      </trkpt>
      <trkpt lat="44.99697" lon="4.544">
        <ele>153</ele>
        <time>2015-12-10T07:45:42Z</time>
      </trkpt>
      <trkpt lat="44.99693" lon="4.54412">
        <ele>151</ele>
        <time>2015-12-10T07:45:46Z</time>
      </trkpt>
      <trkpt lat="44.99689" lon="4.54421">
        <ele>150</ele>
        <time>2015-12-10T07:45:49Z</time>
      </trkpt>
      <trkpt lat="44.99683" lon="4.54435">
        <ele>148</ele>
        <time>2015-12-10T07:45:53Z</time>
      </trkpt>
      <trkpt lat="44.99676" lon="4.54451">
        <ele>146</ele>
        <time>2015-12-10T07:45:57Z</time>
      </trkpt>
      <trkpt lat="44.9967" lon="4.54461">
        <ele>145</ele>
        <time>2015-12-10T07:46:00Z</time>
      </trkpt>
      <trkpt lat="44.99664" lon="4.54472">
        <ele>142</ele>
        <time>2015-12-10T07:46:04Z</time>
      </trkpt>
      <trkpt lat="44.99657" lon="4.54485">
        <ele>141</ele>
        <time>2015-12-10T07:46:09Z</time>
      </trkpt>
      <trkpt lat="44.99652" lon="4.54482">
        <ele>139</ele>
        <time>2015-12-10T07:46:13Z</time>
      </trkpt>
      <trkpt lat="44.99644" lon="4.54479">
        <ele>138</ele>
        <time>2015-12-10T07:46:18Z</time>
      </trkpt>
      <trkpt lat="44.99638" lon="4.54481">
        <ele>137</ele>
        <time>2015-12-10T07:46:21Z</time>
      </trkpt>
      <trkpt lat="44.99631" lon="4.54484">
        <ele>135</ele>
        <time>2015-12-10T07:46:25Z</time>
      </trkpt>
      <trkpt lat="44.99621" lon="4.54485">
        <ele>134</ele>
        <time>2015-12-10T07:46:29Z</time>
      </trkpt>
      <trkpt lat="44.99612" lon="4.54494">
        <ele>133</ele>
        <time>2015-12-10T07:46:33Z</time>
      </trkpt>
      <trkpt lat="44.99606" lon="4.54499">
        <ele>131</ele>
        <time>2015-12-10T07:46:37Z</time>
      </trkpt>
      <trkpt lat="44.99599" lon="4.54506">
        <ele>130</ele>
        <time>2015-12-10T07:46:41Z</time>
      </trkpt>
      <trkpt lat="44.9959" lon="4.54514">
        <ele>128</ele>
        <time>2015-12-10T07:46:46Z</time>
      </trkpt>
      <trkpt lat="44.99578" lon="4.54524">
        <ele>127</ele>
        <time>2015-12-10T07:46:50Z</time>
      </trkpt>
      <trkpt lat="44.99568" lon="4.54537">
        <ele>125</ele>
        <time>2015-12-10T07:46:55Z</time>
      </trkpt>
      <trkpt lat="44.99559" lon="4.54555">
        <ele>123</ele>
        <time>2015-12-10T07:47:00Z</time>
      </trkpt>
      <trkpt lat="44.99553" lon="4.54567">
        <ele>121</ele>
        <time>2015-12-10T07:47:04Z</time>
      </trkpt>
      <trkpt lat="44.99551" lon="4.54576">
        <ele>119</ele>
        <time>2015-12-10T07:47:08Z</time>
      </trkpt>
      <trkpt lat="44.99547" lon="4.54587">
        <ele>117</ele>
        <time>2015-12-10T07:47:12Z</time>
      </trkpt>
      <trkpt lat="44.99543" lon="4.54597">
        <ele>115</ele>
        <time>2015-12-10T07:47:17Z</time>
      </trkpt>
      <trkpt lat="44.99542" lon="4.54606">
        <ele>113</ele>
        <time>2015-12-10T07:47:21Z</time>
      </trkpt>
      <trkpt lat="44.99537" lon="4.5462">
        <ele>111</ele>
        <time>2015-12-10T07:47:25Z</time>
      </trkpt>
      <trkpt lat="44.99533" lon="4.54634">
        <ele>109</ele>
        <time>2015-12-10T07:47:30Z</time>
      </trkpt>
      <trkpt lat="44.99533" lon="4.54646">
        <ele>107</ele>
        <time>2015-12-10T07:47:34Z</time>
      </trkpt>
      <trkpt lat="44.9953" lon="4.54659">
        <ele>104</ele>
        <time>2015-12-10T07:47:39Z</time>
      </trkpt>
      <trkpt lat="44.99527" lon="4.54665">
        <ele>103</ele>
        <time>2015-12-10T07:47:42Z</time>
      </trkpt>
      <trkpt lat="44.99522" lon="4.54676">
        <ele>101</ele>
        <time>2015-12-10T07:47:46Z</time>
      </trkpt>
      <trkpt lat="44.99518" lon="4.54686">
        <ele>98</ele>
        <time>2015-12-10T07:47:52Z</time>
      </trkpt>
      <trkpt lat="44.99513" lon="4.54696">
        <ele>95</ele>
        <time>2015-12-10T07:47:58Z</time>
      </trkpt>
      <trkpt lat="44.99505" lon="4.54699">
        <ele>90</ele>
        <time>2015-12-10T07:48:14Z</time>
      </trkpt>
      <trkpt lat="44.99505" lon="4.54687">
        <ele>89</ele>
        <time>2015-12-10T07:48:20Z</time>
      </trkpt>
      <trkpt lat="44.99508" lon="4.54677">
        <ele>86</ele>
        <time>2015-12-10T07:48:34Z</time>
      </trkpt>
      <trkpt lat="44.99503" lon="4.54671">
        <ele>83</ele>
        <time>2015-12-10T07:48:42Z</time>
      </trkpt>
      <trkpt lat="44.995" lon="4.54662">
        <ele>82</ele>
        <time>2015-12-10T07:48:48Z</time>
      </trkpt>
      <trkpt lat="44.99495" lon="4.54653">
        <ele>81</ele>
        <time>2015-12-10T07:48:52Z</time>
      </trkpt>
      <trkpt lat="44.99489" lon="4.54642">
        <ele>80</ele>
        <time>2015-12-10T07:48:56Z</time>
      </trkpt>
      <trkpt lat="44.99488" lon="4.54629">
        <ele>79</ele>
        <time>2015-12-10T07:49:01Z</time>
      </trkpt>
      <trkpt lat="44.99492" lon="4.54621">
        <ele>78</ele>
        <time>2015-12-10T07:49:06Z</time>
      </trkpt>
      <trkpt lat="44.99496" lon="4.54619">
        <ele>80</ele>
        <time>2015-12-10T07:49:14Z</time>
      </trkpt>
      <trkpt lat="44.99386" lon="4.54736">
        <ele>85</ele>
        <time>2015-12-10T07:49:19Z</time>
      </trkpt>
      <trkpt lat="44.99395" lon="4.54766">
        <ele>87</ele>
        <time>2015-12-10T07:49:24Z</time>
      </trkpt>
      <trkpt lat="44.99395" lon="4.54789">
        <ele>88</ele>
        <time>2015-12-10T07:49:27Z</time>
      </trkpt>
      <trkpt lat="44.99399" lon="4.54786">
        <ele>90</ele>
        <time>2015-12-10T07:49:33Z</time>
      </trkpt>
      <trkpt lat="44.99393" lon="4.54795">
        <ele>93</ele>
        <time>2015-12-10T07:49:38Z</time>
      </trkpt>
      <trkpt lat="44.99389" lon="4.54802">
        <ele>95</ele>
        <time>2015-12-10T07:49:42Z</time>
      </trkpt>
      <trkpt lat="44.99384" lon="4.5479">
        <ele>96</ele>
        <time>2015-12-10T07:49:47Z</time>
      </trkpt>
      <trkpt lat="44.99378" lon="4.54788">
        <ele>102</ele>
        <time>2015-12-10T07:49:54Z</time>
      </trkpt>
      <trkpt lat="44.99372" lon="4.54796">
        <ele>104</ele>
        <time>2015-12-10T07:49:57Z</time>
      </trkpt>
      <trkpt lat="44.99365" lon="4.54811">
        <ele>109</ele>
        <time>2015-12-10T07:50:00Z</time>
      </trkpt>
      <trkpt lat="44.99364" lon="4.54821">
        <ele>115</ele>
        <time>2015-12-10T07:50:06Z</time>
      </trkpt>
      <trkpt lat="44.99384" lon="4.54832">
        <ele>121</ele>
        <time>2015-12-10T07:50:10Z</time>
      </trkpt>
      <trkpt lat="44.99386" lon="4.54843">
        <ele>130</ele>
        <time>2015-12-10T07:50:19Z</time>
      </trkpt>
      <trkpt lat="44.9938" lon="4.54852">
        <ele>134</ele>
        <time>2015-12-10T07:50:24Z</time>
      </trkpt>
      <trkpt lat="44.99377" lon="4.54856">
        <ele>137</ele>
        <time>2015-12-10T07:50:28Z</time>
      </trkpt>
      <trkpt lat="44.99371" lon="4.54875">
        <ele>140</ele>
        <time>2015-12-10T07:50:33Z</time>
      </trkpt>
      <trkpt lat="44.99366" lon="4.54884">
        <ele>142</ele>
        <time>2015-12-10T07:50:38Z</time>
      </trkpt>
      <trkpt lat="44.99359" lon="4.54897">
        <ele>147</ele>
        <time>2015-12-10T07:50:43Z</time>
      </trkpt>
      <trkpt lat="44.99352" lon="4.5489">
        <ele>171</ele>
        <time>2015-12-10T07:51:02Z</time>
      </trkpt>
      <trkpt lat="44.99346" lon="4.54891">
        <ele>176</ele>
        <time>2015-12-10T07:51:06Z</time>
      </trkpt>
      <trkpt lat="44.9934" lon="4.54886">
        <ele>181</ele>
        <time>2015-12-10T07:51:10Z</time>
      </trkpt>
      <trkpt lat="44.99332" lon="4.5487">
        <ele>188</ele>
        <time>2015-12-10T07:51:14Z</time>
      </trkpt>
      <trkpt lat="44.99325" lon="4.54868">
        <ele>193</ele>
        <time>2015-12-10T07:51:19Z</time>
      </trkpt>
      <trkpt lat="44.99318" lon="4.54874">
        <ele>198</ele>
        <time>2015-12-10T07:51:22Z</time>
      </trkpt>
      <trkpt lat="44.99306" lon="4.54874">
        <ele>204</ele>
        <time>2015-12-10T07:51:26Z</time>
      </trkpt>
      <trkpt lat="44.99298" lon="4.54873">
        <ele>210</ele>
        <time>2015-12-10T07:51:31Z</time>
      </trkpt>
      <trkpt lat="44.99286" lon="4.54868">
        <ele>216</ele>
        <time>2015-12-10T07:51:36Z</time>
      </trkpt>
      <trkpt lat="44.99276" lon="4.54865">
        <ele>223</ele>
        <time>2015-12-10T07:51:41Z</time>
      </trkpt>
      <trkpt lat="44.99271" lon="4.54865">
        <ele>228</ele>
        <time>2015-12-10T07:51:44Z</time>
      </trkpt>
      <trkpt lat="44.9925" lon="4.54855">
        <ele>240</ele>
        <time>2015-12-10T07:51:48Z</time>
      </trkpt>
      <trkpt lat="44.99232" lon="4.54856">
        <ele>253</ele>
        <time>2015-12-10T07:51:52Z</time>
      </trkpt>
      <trkpt lat="44.9922" lon="4.54866">
        <ele>265</ele>
        <time>2015-12-10T07:51:56Z</time>
      </trkpt>
      <trkpt lat="44.99207" lon="4.54883">
        <ele>276</ele>
        <time>2015-12-10T07:52:00Z</time>
      </trkpt>
      <trkpt lat="44.99186" lon="4.54908">
        <ele>297</ele>
        <time>2015-12-10T07:52:05Z</time>
      </trkpt>
      <trkpt lat="44.99182" lon="4.54921">
        <ele>305</ele>
        <time>2015-12-10T07:52:08Z</time>
      </trkpt>
      <trkpt lat="44.99181" lon="4.54935">
        <ele>315</ele>
        <time>2015-12-10T07:52:12Z</time>
      </trkpt>
      <trkpt lat="44.99179" lon="4.5495">
        <ele>327</ele>
        <time>2015-12-10T07:52:16Z</time>
      </trkpt>
      <trkpt lat="44.99174" lon="4.5496">
        <ele>335</ele>
        <time>2015-12-10T07:52:21Z</time>
      </trkpt>
      <trkpt lat="44.9917" lon="4.54968">
        <ele>339</ele>
        <time>2015-12-10T07:52:25Z</time>
      </trkpt>
      <trkpt lat="44.99164" lon="4.54974">
        <ele>345</ele>
        <time>2015-12-10T07:52:30Z</time>
      </trkpt>
      <trkpt lat="44.99158" lon="4.54983">
        <ele>350</ele>
        <time>2015-12-10T07:52:34Z</time>
      </trkpt>
      <trkpt lat="44.99156" lon="4.5499">
        <ele>354</ele>
        <time>2015-12-10T07:52:38Z</time>
      </trkpt>
      <trkpt lat="44.99149" lon="4.55004">
        <ele>360</ele>
        <time>2015-12-10T07:52:43Z</time>
      </trkpt>
      <trkpt lat="44.99146" lon="4.55012">
        <ele>362</ele>
        <time>2015-12-10T07:52:46Z</time>
      </trkpt>
      <trkpt lat="44.9914" lon="4.55021">
        <ele>366</ele>
        <time>2015-12-10T07:52:50Z</time>
      </trkpt>
      <trkpt lat="44.99134" lon="4.55031">
        <ele>370</ele>
        <time>2015-12-10T07:52:54Z</time>
      </trkpt>
      <trkpt lat="44.99132" lon="4.55039">
        <ele>374</ele>
        <time>2015-12-10T07:52:58Z</time>
      </trkpt>
      <trkpt lat="44.99126" lon="4.55051">
        <ele>377</ele>
        <time>2015-12-10T07:53:02Z</time>
      </trkpt>
      <trkpt lat="44.99122" lon="4.5506">
        <ele>381</ele>
        <time>2015-12-10T07:53:06Z</time>
      </trkpt>
      <trkpt lat="44.99117" lon="4.55077">
        <ele>384</ele>
        <time>2015-12-10T07:53:10Z</time>
      </trkpt>
      <trkpt lat="44.99114" lon="4.55086">
        <ele>386</ele>
        <time>2015-12-10T07:53:13Z</time>
      </trkpt>
      <trkpt lat="44.99108" lon="4.551">
        <ele>389</ele>
        <time>2015-12-10T07:53:17Z</time>
      </trkpt>
      <trkpt lat="44.99103" lon="4.55123">
        <ele>393</ele>
        <time>2015-12-10T07:53:22Z</time>
      </trkpt>
      <trkpt lat="44.991" lon="4.5514">
        <ele>396</ele>
        <time>2015-12-10T07:53:26Z</time>
      </trkpt>
      <trkpt lat="44.991" lon="4.55154">
        <ele>400</ele>
        <time>2015-12-10T07:53:30Z</time>
      </trkpt>
      <trkpt lat="44.99102" lon="4.55164">
        <ele>402</ele>
        <time>2015-12-10T07:53:33Z</time>
      </trkpt>
      <trkpt lat="44.99102" lon="4.55179">
        <ele>406</ele>
        <time>2015-12-10T07:53:37Z</time>
      </trkpt>
      <trkpt lat="44.991" lon="4.5519">
        <ele>408</ele>
        <time>2015-12-10T07:53:40Z</time>
      </trkpt>
      <trkpt lat="44.991" lon="4.55199">
        <ele>410</ele>
        <time>2015-12-10T07:53:43Z</time>
      </trkpt>
      <trkpt lat="44.991" lon="4.55214">
        <ele>413</ele>
        <time>2015-12-10T07:53:48Z</time>
      </trkpt>
      <trkpt lat="44.99099" lon="4.55228">
        <ele>415</ele>
        <time>2015-12-10T07:53:52Z</time>
      </trkpt>
      <trkpt lat="44.99095" lon="4.55247">
        <ele>418</ele>
        <time>2015-12-10T07:53:57Z</time>
      </trkpt>
      <trkpt lat="44.99095" lon="4.5526">
        <ele>420</ele>
        <time>2015-12-10T07:54:01Z</time>
      </trkpt>
      <trkpt lat="44.99095" lon="4.5527">
        <ele>421</ele>
        <time>2015-12-10T07:54:05Z</time>
      </trkpt>
      <trkpt lat="44.99094" lon="4.5529">
        <ele>424</ele>
        <time>2015-12-10T07:54:10Z</time>
      </trkpt>
      <trkpt lat="44.99094" lon="4.55304">
        <ele>427</ele>
        <time>2015-12-10T07:54:13Z</time>
      </trkpt>
      <trkpt lat="44.99092" lon="4.55318">
        <ele>430</ele>
        <time>2015-12-10T07:54:16Z</time>
      </trkpt>
      <trkpt lat="44.99087" lon="4.55341">
        <ele>433</ele>
        <time>2015-12-10T07:54:21Z</time>
      </trkpt>
      <trkpt lat="44.99084" lon="4.55357">
        <ele>435</ele>
        <time>2015-12-10T07:54:26Z</time>
      </trkpt>
      <trkpt lat="44.99081" lon="4.55365">
        <ele>436</ele>
        <time>2015-12-10T07:54:29Z</time>
      </trkpt>
      <trkpt lat="44.99076" lon="4.55388">
        <ele>438</ele>
        <time>2015-12-10T07:54:34Z</time>
      </trkpt>
      <trkpt lat="44.99072" lon="4.55412">
        <ele>441</ele>
        <time>2015-12-10T07:54:39Z</time>
      </trkpt>
      <trkpt lat="44.99069" lon="4.55425">
        <ele>441</ele>
        <time>2015-12-10T07:54:43Z</time>
      </trkpt>
      <trkpt lat="44.99067" lon="4.55437">
        <ele>441</ele>
        <time>2015-12-10T07:54:48Z</time>
      </trkpt>
      <trkpt lat="44.99067" lon="4.55459">
        <ele>443</ele>
        <time>2015-12-10T07:54:53Z</time>
      </trkpt>
      <trkpt lat="44.99063" lon="4.55477">
        <ele>444</ele>
        <time>2015-12-10T07:54:57Z</time>
      </trkpt>
      <trkpt lat="44.99061" lon="4.55486">
        <ele>445</ele>
        <time>2015-12-10T07:55:00Z</time>
      </trkpt>
      <trkpt lat="44.99061" lon="4.55502">
        <ele>447</ele>
        <time>2015-12-10T07:55:03Z</time>
      </trkpt>
      <trkpt lat="44.99061" lon="4.55513">
        <ele>448</ele>
        <time>2015-12-10T07:55:08Z</time>
      </trkpt>
      <trkpt lat="44.99061" lon="4.55522">
        <ele>449</ele>
        <time>2015-12-10T07:55:12Z</time>
      </trkpt>
      <trkpt lat="44.99058" lon="4.55531">
        <ele>449</ele>
        <time>2015-12-10T07:55:16Z</time>
      </trkpt>
      <trkpt lat="44.99049" lon="4.55545">
        <ele>450</ele>
        <time>2015-12-10T07:55:20Z</time>
      </trkpt>
      <trkpt lat="44.99046" lon="4.55558">
        <ele>451</ele>
        <time>2015-12-10T07:55:24Z</time>
      </trkpt>
      <trkpt lat="44.99042" lon="4.55566">
        <ele>451</ele>
        <time>2015-12-10T07:55:28Z</time>
      </trkpt>
      <trkpt lat="44.99037" lon="4.55577">
        <ele>452</ele>
        <time>2015-12-10T07:55:34Z</time>
      </trkpt>
      <trkpt lat="44.99035" lon="4.55585">
        <ele>453</ele>
        <time>2015-12-10T07:55:40Z</time>
      </trkpt>
      <trkpt lat="44.9903" lon="4.556">
        <ele>454</ele>
        <time>2015-12-10T07:55:45Z</time>
      </trkpt>
      <trkpt lat="44.99026" lon="4.55614">
        <ele>453</ele>
        <time>2015-12-10T07:55:48Z</time>
      </trkpt>
      <trkpt lat="44.9902" lon="4.55629">
        <ele>453</ele>
        <time>2015-12-10T07:55:52Z</time>
      </trkpt>
      <trkpt lat="44.99007" lon="4.5565">
        <ele>452</ele>
        <time>2015-12-10T07:55:57Z</time>
      </trkpt>
      <trkpt lat="44.98997" lon="4.55668">
        <ele>452</ele>
        <time>2015-12-10T07:56:01Z</time>
      </trkpt>
      <trkpt lat="44.98986" lon="4.55688">
        <ele>452</ele>
        <time>2015-12-10T07:56:06Z</time>
      </trkpt>
      <trkpt lat="44.98977" lon="4.55701">
        <ele>451</ele>
        <time>2015-12-10T07:56:10Z</time>
      </trkpt>
      <trkpt lat="44.98967" lon="4.55715">
        <ele>450</ele>
        <time>2015-12-10T07:56:15Z</time>
      </trkpt>
      <trkpt lat="44.98958" lon="4.55729">
        <ele>448</ele>
        <time>2015-12-10T07:56:19Z</time>
      </trkpt>
      <trkpt lat="44.98949" lon="4.55742">
        <ele>446</ele>
        <time>2015-12-10T07:56:23Z</time>
      </trkpt>
      <trkpt lat="44.98942" lon="4.55754">
        <ele>444</ele>
        <time>2015-12-10T07:56:27Z</time>
      </trkpt>
      <trkpt lat="44.98939" lon="4.55765">
        <ele>443</ele>
        <time>2015-12-10T07:56:31Z</time>
      </trkpt>
      <trkpt lat="44.98928" lon="4.55768">
        <ele>442</ele>
        <time>2015-12-10T07:56:35Z</time>
      </trkpt>
      <trkpt lat="44.9892" lon="4.5576">
        <ele>441</ele>
        <time>2015-12-10T07:56:40Z</time>
      </trkpt>
      <trkpt lat="44.98916" lon="4.55752">
        <ele>439</ele>
        <time>2015-12-10T07:56:44Z</time>
      </trkpt>
      <trkpt lat="44.98912" lon="4.5574">
        <ele>438</ele>
        <time>2015-12-10T07:56:49Z</time>
      </trkpt>
      <trkpt lat="44.9891" lon="4.55728">
        <ele>437</ele>
        <time>2015-12-10T07:56:53Z</time>
      </trkpt>
      <trkpt lat="44.98911" lon="4.55716">
        <ele>435</ele>
        <time>2015-12-10T07:57:02Z</time>
      </trkpt>
      <trkpt lat="44.9891" lon="4.55705">
        <ele>433</ele>
        <time>2015-12-10T07:57:07Z</time>
      </trkpt>
      <trkpt lat="44.98914" lon="4.55697">
        <ele>433</ele>
        <time>2015-12-10T07:57:53Z</time>
      </trkpt>
      <trkpt lat="44.98905" lon="4.55694">
        <ele>433</ele>
        <time>2015-12-10T07:57:57Z</time>
      </trkpt>
      <trkpt lat="44.98899" lon="4.55703">
        <ele>432</ele>
        <time>2015-12-10T07:58:11Z</time>
      </trkpt>
      <trkpt lat="44.98892" lon="4.55711">
        <ele>431</ele>
        <time>2015-12-10T07:58:18Z</time>
      </trkpt>
      <trkpt lat="44.98888" lon="4.55719">
        <ele>431</ele>
        <time>2015-12-10T07:58:24Z</time>
      </trkpt>
      <trkpt lat="44.98885" lon="4.55726">
        <ele>431</ele>
        <time>2015-12-10T07:58:28Z</time>
      </trkpt>
      <trkpt lat="44.98881" lon="4.55738">
        <ele>430</ele>
        <time>2015-12-10T07:58:34Z</time>
      </trkpt>
      <trkpt lat="44.9888" lon="4.55746">
        <ele>430</ele>
        <time>2015-12-10T07:58:38Z</time>
      </trkpt>
      <trkpt lat="44.98878" lon="4.55754">
        <ele>430</ele>
        <time>2015-12-10T07:58:42Z</time>
      </trkpt>
      <trkpt lat="44.98871" lon="4.55765">
        <ele>430</ele>
        <time>2015-12-10T07:58:47Z</time>
      </trkpt>
      <trkpt lat="44.98869" lon="4.55775">
        <ele>429</ele>
        <time>2015-12-10T07:58:51Z</time>
      </trkpt>
      <trkpt lat="44.98866" lon="4.55784">
        <ele>429</ele>
        <time>2015-12-10T07:58:56Z</time>
      </trkpt>
      <trkpt lat="44.98867" lon="4.55798">
        <ele>429</ele>
        <time>2015-12-10T07:59:00Z</time>
      </trkpt>
      <trkpt lat="44.9886" lon="4.55802">
        <ele>428</ele>
        <time>2015-12-10T07:59:05Z</time>
      </trkpt>
      <trkpt lat="44.98853" lon="4.558">
        <ele>428</ele>
        <time>2015-12-10T07:59:11Z</time>
      </trkpt>
      <trkpt lat="44.98848" lon="4.55796">
        <ele>427</ele>
        <time>2015-12-10T07:59:16Z</time>
      </trkpt>
      <trkpt lat="44.98843" lon="4.55786">
        <ele>426</ele>
        <time>2015-12-10T07:59:22Z</time>
      </trkpt>
      <trkpt lat="44.9884" lon="4.55777">
        <ele>425</ele>
        <time>2015-12-10T07:59:32Z</time>
      </trkpt>
      <trkpt lat="44.98834" lon="4.5577">
        <ele>423</ele>
        <time>2015-12-10T07:59:37Z</time>
      </trkpt>
      <trkpt lat="44.98827" lon="4.55754">
        <ele>422</ele>
        <time>2015-12-10T07:59:42Z</time>
      </trkpt>
      <trkpt lat="44.98825" lon="4.55764">
        <ele>419</ele>
        <time>2015-12-10T07:59:47Z</time>
      </trkpt>
      <trkpt lat="44.98821" lon="4.55776">
        <ele>417</ele>
        <time>2015-12-10T07:59:52Z</time>
      </trkpt>
      <trkpt lat="44.98817" lon="4.55785">
        <ele>416</ele>
        <time>2015-12-10T07:59:57Z</time>
      </trkpt>
      <trkpt lat="44.98811" lon="4.5578">
        <ele>413</ele>
        <time>2015-12-10T08:00:06Z</time>
      </trkpt>
      <trkpt lat="44.98807" lon="4.55769">
        <ele>412</ele>
        <time>2015-12-10T08:00:10Z</time>
      </trkpt>
      <trkpt lat="44.98806" lon="4.55757">
        <ele>410</ele>
        <time>2015-12-10T08:00:15Z</time>
      </trkpt>
      <trkpt lat="44.98805" lon="4.55747">
        <ele>409</ele>
        <time>2015-12-10T08:00:18Z</time>
      </trkpt>
      <trkpt lat="44.98806" lon="4.55737">
        <ele>408</ele>
        <time>2015-12-10T08:00:22Z</time>
      </trkpt>
      <trkpt lat="44.98808" lon="4.55727">
        <ele>407</ele>
        <time>2015-12-10T08:00:26Z</time>
      </trkpt>
      <trkpt lat="44.98812" lon="4.55717">
        <ele>405</ele>
        <time>2015-12-10T08:00:30Z</time>
      </trkpt>
      <trkpt lat="44.98817" lon="4.55708">
        <ele>403</ele>
        <time>2015-12-10T08:00:34Z</time>
      </trkpt>
      <trkpt lat="44.98823" lon="4.557">
        <ele>401</ele>
        <time>2015-12-10T08:00:38Z</time>
      </trkpt>
      <trkpt lat="44.98828" lon="4.5569">
        <ele>400</ele>
        <time>2015-12-10T08:00:42Z</time>
      </trkpt>
      <trkpt lat="44.98832" lon="4.55677">
        <ele>398</ele>
        <time>2015-12-10T08:00:46Z</time>
      </trkpt>
      <trkpt lat="44.98835" lon="4.55665">
        <ele>397</ele>
        <time>2015-12-10T08:00:49Z</time>
      </trkpt>
      <trkpt lat="44.98841" lon="4.5565">
        <ele>395</ele>
        <time>2015-12-10T08:00:54Z</time>
      </trkpt>
      <trkpt lat="44.98846" lon="4.55643">
        <ele>394</ele>
        <time>2015-12-10T08:00:57Z</time>
      </trkpt>
      <trkpt lat="44.98856" lon="4.55632">
        <ele>392</ele>
        <time>2015-12-10T08:01:02Z</time>
      </trkpt>
      <trkpt lat="44.98861" lon="4.55621">
        <ele>389</ele>
        <time>2015-12-10T08:01:09Z</time>
      </trkpt>
      <trkpt lat="44.9886" lon="4.55609">
        <ele>386</ele>
        <time>2015-12-10T08:01:15Z</time>
      </trkpt>
      <trkpt lat="44.98863" lon="4.55598">
        <ele>383</ele>
        <time>2015-12-10T08:01:24Z</time>
      </trkpt>
      <trkpt lat="44.98862" lon="4.55591">
        <ele>382</ele>
        <time>2015-12-10T08:01:30Z</time>
      </trkpt>
      <trkpt lat="44.98854" lon="4.55587">
        <ele>381</ele>
        <time>2015-12-10T08:01:34Z</time>
      </trkpt>
      <trkpt lat="44.98848" lon="4.55593">
        <ele>380</ele>
        <time>2015-12-10T08:01:41Z</time>
      </trkpt>
      <trkpt lat="44.98845" lon="4.556">
        <ele>379</ele>
        <time>2015-12-10T08:01:46Z</time>
      </trkpt>
      <trkpt lat="44.98838" lon="4.55612">
        <ele>377</ele>
        <time>2015-12-10T08:01:51Z</time>
      </trkpt>
      <trkpt lat="44.98833" lon="4.5562">
        <ele>376</ele>
        <time>2015-12-10T08:01:56Z</time>
      </trkpt>
      <trkpt lat="44.98826" lon="4.5563">
        <ele>374</ele>
        <time>2015-12-10T08:02:01Z</time>
      </trkpt>
      <trkpt lat="44.98817" lon="4.5564">
        <ele>372</ele>
        <time>2015-12-10T08:02:05Z</time>
      </trkpt>
      <trkpt lat="44.9881" lon="4.55643">
        <ele>370</ele>
        <time>2015-12-10T08:02:09Z</time>
      </trkpt>
      <trkpt lat="44.98802" lon="4.55646">
        <ele>369</ele>
        <time>2015-12-10T08:02:13Z</time>
      </trkpt>
      <trkpt lat="44.98795" lon="4.55651">
        <ele>367</ele>
        <time>2015-12-10T08:02:16Z</time>
      </trkpt>
      <trkpt lat="44.98785" lon="4.55654">
        <ele>365</ele>
        <time>2015-12-10T08:02:20Z</time>
      </trkpt>
      <trkpt lat="44.98774" lon="4.55656">
        <ele>363</ele>
        <time>2015-12-10T08:02:24Z</time>
      </trkpt>
      <trkpt lat="44.98761" lon="4.55656">
        <ele>360</ele>
        <time>2015-12-10T08:02:28Z</time>
      </trkpt>
      <trkpt lat="44.98751" lon="4.5566">
        <ele>358</ele>
        <time>2015-12-10T08:02:32Z</time>
      </trkpt>
      <trkpt lat="44.98745" lon="4.55662">
        <ele>356</ele>
        <time>2015-12-10T08:02:36Z</time>
      </trkpt>
      <trkpt lat="44.98739" lon="4.55675">
        <ele>354</ele>
        <time>2015-12-10T08:02:41Z</time>
      </trkpt>
      <trkpt lat="44.98734" lon="4.55696">
        <ele>352</ele>
        <time>2015-12-10T08:02:46Z</time>
      </trkpt>
      <trkpt lat="44.9873" lon="4.55711">
        <ele>350</ele>
        <time>2015-12-10T08:02:50Z</time>
      </trkpt>
      <trkpt lat="44.98725" lon="4.55724">
        <ele>348</ele>
        <time>2015-12-10T08:02:54Z</time>
      </trkpt>
      <trkpt lat="44.9872" lon="4.55736">
        <ele>346</ele>
        <time>2015-12-10T08:02:58Z</time>
      </trkpt>
      <trkpt lat="44.98715" lon="4.55748">
        <ele>345</ele>
        <time>2015-12-10T08:03:01Z</time>
      </trkpt>
      <trkpt lat="44.9871" lon="4.55762">
        <ele>343</ele>
        <time>2015-12-10T08:03:06Z</time>
      </trkpt>
      <trkpt lat="44.98698" lon="4.55777">
        <ele>342</ele>
        <time>2015-12-10T08:03:11Z</time>
      </trkpt>
      <trkpt lat="44.98697" lon="4.55787">
        <ele>341</ele>
        <time>2015-12-10T08:03:14Z</time>
      </trkpt>
      <trkpt lat="44.98692" lon="4.55802">
        <ele>340</ele>
        <time>2015-12-10T08:03:18Z</time>
      </trkpt>
      <trkpt lat="44.98689" lon="4.55815">
        <ele>341</ele>
        <time>2015-12-10T08:03:22Z</time>
      </trkpt>
      <trkpt lat="44.98693" lon="4.55829">
        <ele>341</ele>
        <time>2015-12-10T08:03:27Z</time>
      </trkpt>
      <trkpt lat="44.98699" lon="4.55843">
        <ele>340</ele>
        <time>2015-12-10T08:03:32Z</time>
      </trkpt>
      <trkpt lat="44.98708" lon="4.55851">
        <ele>340</ele>
        <time>2015-12-10T08:03:36Z</time>
      </trkpt>
      <trkpt lat="44.98715" lon="4.55863">
        <ele>340</ele>
        <time>2015-12-10T08:03:40Z</time>
      </trkpt>
      <trkpt lat="44.98718" lon="4.55876">
        <ele>340</ele>
        <time>2015-12-10T08:03:44Z</time>
      </trkpt>
      <trkpt lat="44.98721" lon="4.55887">
        <ele>340</ele>
        <time>2015-12-10T08:03:47Z</time>
      </trkpt>
      <trkpt lat="44.98728" lon="4.55898">
        <ele>340</ele>
        <time>2015-12-10T08:03:51Z</time>
      </trkpt>
      <trkpt lat="44.98734" lon="4.5591">
        <ele>340</ele>
        <time>2015-12-10T08:03:55Z</time>
      </trkpt>
      <trkpt lat="44.98744" lon="4.55926">
        <ele>340</ele>
        <time>2015-12-10T08:04:00Z</time>
      </trkpt>
      <trkpt lat="44.98751" lon="4.55936">
        <ele>340</ele>
        <time>2015-12-10T08:04:04Z</time>
      </trkpt>
      <trkpt lat="44.98757" lon="4.55952">
        <ele>339</ele>
        <time>2015-12-10T08:04:09Z</time>
      </trkpt>
      <trkpt lat="44.9876" lon="4.55962">
        <ele>339</ele>
        <time>2015-12-10T08:04:12Z</time>
      </trkpt>
      <trkpt lat="44.98764" lon="4.55972">
        <ele>338</ele>
        <time>2015-12-10T08:04:15Z</time>
      </trkpt>
      <trkpt lat="44.98768" lon="4.55981">
        <ele>339</ele>
        <time>2015-12-10T08:04:18Z</time>
      </trkpt>
      <trkpt lat="44.98775" lon="4.5599">
        <ele>339</ele>
        <time>2015-12-10T08:04:22Z</time>
      </trkpt>
      <trkpt lat="44.98782" lon="4.55998">
        <ele>338</ele>
        <time>2015-12-10T08:04:26Z</time>
      </trkpt>
      <trkpt lat="44.98787" lon="4.56006">
        <ele>338</ele>
        <time>2015-12-10T08:04:30Z</time>
      </trkpt>
      <trkpt lat="44.98793" lon="4.56012">
        <ele>337</ele>
        <time>2015-12-10T08:04:35Z</time>
      </trkpt>
      <trkpt lat="44.98802" lon="4.56014">
        <ele>335</ele>
        <time>2015-12-10T08:04:42Z</time>
      </trkpt>
      <trkpt lat="44.9881" lon="4.56012">
        <ele>333</ele>
        <time>2015-12-10T08:04:47Z</time>
      </trkpt>
      <trkpt lat="44.98818" lon="4.56005">
        <ele>330</ele>
        <time>2015-12-10T08:04:52Z</time>
      </trkpt>
      <trkpt lat="44.98825" lon="4.56004">
        <ele>327</ele>
        <time>2015-12-10T08:04:57Z</time>
      </trkpt>
      <trkpt lat="44.98833" lon="4.56004">
        <ele>324</ele>
        <time>2015-12-10T08:05:02Z</time>
      </trkpt>
      <trkpt lat="44.98839" lon="4.56011">
        <ele>322</ele>
        <time>2015-12-10T08:05:06Z</time>
      </trkpt>
      <trkpt lat="44.98847" lon="4.56016">
        <ele>319</ele>
        <time>2015-12-10T08:05:10Z</time>
      </trkpt>
      <trkpt lat="44.98853" lon="4.56024">
        <ele>317</ele>
        <time>2015-12-10T08:05:14Z</time>
      </trkpt>
      <trkpt lat="44.98859" lon="4.56031">
        <ele>316</ele>
        <time>2015-12-10T08:05:17Z</time>
      </trkpt>
      <trkpt lat="44.98866" lon="4.56047">
        <ele>313</ele>
        <time>2015-12-10T08:05:22Z</time>
      </trkpt>
      <trkpt lat="44.98878" lon="4.56063">
        <ele>312</ele>
        <time>2015-12-10T08:05:27Z</time>
      </trkpt>
      <trkpt lat="44.98889" lon="4.56076">
        <ele>311</ele>
        <time>2015-12-10T08:05:31Z</time>
      </trkpt>
      <trkpt lat="44.98905" lon="4.56079">
        <ele>313</ele>
        <time>2015-12-10T08:05:34Z</time>
      </trkpt>
      <trkpt lat="44.98925" lon="4.56085">
        <ele>315</ele>
        <time>2015-12-10T08:05:39Z</time>
      </trkpt>
      <trkpt lat="44.98929" lon="4.56092">
        <ele>317</ele>
        <time>2015-12-10T08:05:43Z</time>
      </trkpt>
      <trkpt lat="44.98932" lon="4.56103">
        <ele>317</ele>
        <time>2015-12-10T08:05:47Z</time>
      </trkpt>
      <trkpt lat="44.98937" lon="4.56115">
        <ele>317</ele>
        <time>2015-12-10T08:05:51Z</time>
      </trkpt>
      <trkpt lat="44.98941" lon="4.56128">
        <ele>316</ele>
        <time>2015-12-10T08:05:55Z</time>
      </trkpt>
      <trkpt lat="44.98943" lon="4.56138">
        <ele>315</ele>
        <time>2015-12-10T08:05:59Z</time>
      </trkpt>
      <trkpt lat="44.98946" lon="4.56154">
        <ele>314</ele>
        <time>2015-12-10T08:06:04Z</time>
      </trkpt>
      <trkpt lat="44.98948" lon="4.56168">
        <ele>314</ele>
        <time>2015-12-10T08:06:08Z</time>
      </trkpt>
      <trkpt lat="44.98951" lon="4.56182">
        <ele>315</ele>
        <time>2015-12-10T08:06:12Z</time>
      </trkpt>
      <trkpt lat="44.98953" lon="4.56196">
        <ele>316</ele>
        <time>2015-12-10T08:06:16Z</time>
      </trkpt>
      <trkpt lat="44.98955" lon="4.56211">
        <ele>315</ele>
        <time>2015-12-10T08:06:20Z</time>
      </trkpt>
      <trkpt lat="44.98956" lon="4.56226">
        <ele>314</ele>
        <time>2015-12-10T08:06:24Z</time>
      </trkpt>
      <trkpt lat="44.98957" lon="4.5624">
        <ele>314</ele>
        <time>2015-12-10T08:06:28Z</time>
      </trkpt>
      <trkpt lat="44.98958" lon="4.5626">
        <ele>313</ele>
        <time>2015-12-10T08:06:33Z</time>
      </trkpt>
      <trkpt lat="44.98957" lon="4.56269">
        <ele>313</ele>
        <time>2015-12-10T08:06:36Z</time>
      </trkpt>
      <trkpt lat="44.98958" lon="4.56286">
        <ele>312</ele>
        <time>2015-12-10T08:06:41Z</time>
      </trkpt>
      <trkpt lat="44.98959" lon="4.563">
        <ele>311</ele>
        <time>2015-12-10T08:06:45Z</time>
      </trkpt>
      <trkpt lat="44.98961" lon="4.56311">
        <ele>311</ele>
        <time>2015-12-10T08:06:49Z</time>
      </trkpt>
      <trkpt lat="44.98963" lon="4.56332">
        <ele>311</ele>
        <time>2015-12-10T08:06:54Z</time>
      </trkpt>
      <trkpt lat="44.98965" lon="4.56348">
        <ele>311</ele>
        <time>2015-12-10T08:06:59Z</time>
      </trkpt>
      <trkpt lat="44.98967" lon="4.56361">
        <ele>311</ele>
        <time>2015-12-10T08:07:02Z</time>
      </trkpt>
      <trkpt lat="44.98969" lon="4.56376">
        <ele>311</ele>
        <time>2015-12-10T08:07:06Z</time>
      </trkpt>
      <trkpt lat="44.98972" lon="4.56391">
        <ele>311</ele>
        <time>2015-12-10T08:07:10Z</time>
      </trkpt>
      <trkpt lat="44.98974" lon="4.56407">
        <ele>310</ele>
        <time>2015-12-10T08:07:15Z</time>
      </trkpt>
      <trkpt lat="44.98976" lon="4.56419">
        <ele>310</ele>
        <time>2015-12-10T08:07:19Z</time>
      </trkpt>
      <trkpt lat="44.98971" lon="4.56432">
        <ele>313</ele>
        <time>2015-12-10T08:07:24Z</time>
      </trkpt>
      <trkpt lat="44.9896" lon="4.56432">
        <ele>313</ele>
        <time>2015-12-10T08:07:29Z</time>
      </trkpt>
      <trkpt lat="44.98951" lon="4.5643">
        <ele>313</ele>
        <time>2015-12-10T08:07:33Z</time>
      </trkpt>
      <trkpt lat="44.98937" lon="4.56428">
        <ele>313</ele>
        <time>2015-12-10T08:07:38Z</time>
      </trkpt>
      <trkpt lat="44.9892" lon="4.56426">
        <ele>312</ele>
        <time>2015-12-10T08:07:42Z</time>
      </trkpt>
      <trkpt lat="44.98908" lon="4.56425">
        <ele>312</ele>
        <time>2015-12-10T08:07:46Z</time>
      </trkpt>
      <trkpt lat="44.98901" lon="4.56424">
        <ele>312</ele>
        <time>2015-12-10T08:07:50Z</time>
      </trkpt>
      <trkpt lat="44.98896" lon="4.56423">
        <ele>312</ele>
        <time>2015-12-10T08:07:53Z</time>
      </trkpt>
      <trkpt lat="44.98885" lon="4.56424">
        <ele>313</ele>
        <time>2015-12-10T08:07:58Z</time>
      </trkpt>
      <trkpt lat="44.98878" lon="4.56421">
        <ele>313</ele>
        <time>2015-12-10T08:08:02Z</time>
      </trkpt>
      <trkpt lat="44.98866" lon="4.56423">
        <ele>313</ele>
        <time>2015-12-10T08:08:07Z</time>
      </trkpt>
      <trkpt lat="44.98856" lon="4.56426">
        <ele>313</ele>
        <time>2015-12-10T08:08:11Z</time>
      </trkpt>
      <trkpt lat="44.98841" lon="4.56434">
        <ele>314</ele>
        <time>2015-12-10T08:08:16Z</time>
      </trkpt>
      <trkpt lat="44.9883" lon="4.56437">
        <ele>314</ele>
        <time>2015-12-10T08:08:20Z</time>
      </trkpt>
      <trkpt lat="44.9882" lon="4.5644">
        <ele>314</ele>
        <time>2015-12-10T08:08:24Z</time>
      </trkpt>
      <trkpt lat="44.9881" lon="4.56445">
        <ele>315</ele>
        <time>2015-12-10T08:08:29Z</time>
      </trkpt>
      <trkpt lat="44.98803" lon="4.56443">
        <ele>316</ele>
        <time>2015-12-10T08:08:33Z</time>
      </trkpt>
      <trkpt lat="44.98796" lon="4.56442">
        <ele>317</ele>
        <time>2015-12-10T08:08:36Z</time>
      </trkpt>
      <trkpt lat="44.98789" lon="4.56439">
        <ele>317</ele>
        <time>2015-12-10T08:08:40Z</time>
      </trkpt>
      <trkpt lat="44.98781" lon="4.56431">
        <ele>318</ele>
        <time>2015-12-10T08:08:45Z</time>
      </trkpt>
      <trkpt lat="44.98769" lon="4.56429">
        <ele>318</ele>
        <time>2015-12-10T08:08:50Z</time>
      </trkpt>
      <trkpt lat="44.98756" lon="4.56432">
        <ele>319</ele>
        <time>2015-12-10T08:08:55Z</time>
      </trkpt>
      <trkpt lat="44.98745" lon="4.56439">
        <ele>319</ele>
        <time>2015-12-10T08:08:59Z</time>
      </trkpt>
      <trkpt lat="44.98737" lon="4.56443">
        <ele>320</ele>
        <time>2015-12-10T08:09:04Z</time>
      </trkpt>
      <trkpt lat="44.98729" lon="4.56444">
        <ele>321</ele>
        <time>2015-12-10T08:09:11Z</time>
      </trkpt>
      <trkpt lat="44.9872" lon="4.56444">
        <ele>322</ele>
        <time>2015-12-10T08:09:18Z</time>
      </trkpt>
      <trkpt lat="44.98713" lon="4.56444">
        <ele>322</ele>
        <time>2015-12-10T08:09:22Z</time>
      </trkpt>
      <trkpt lat="44.98705" lon="4.5645">
        <ele>323</ele>
        <time>2015-12-10T08:09:28Z</time>
      </trkpt>
      <trkpt lat="44.98698" lon="4.56457">
        <ele>324</ele>
        <time>2015-12-10T08:09:34Z</time>
      </trkpt>
      <trkpt lat="44.98693" lon="4.56462">
        <ele>325</ele>
        <time>2015-12-10T08:09:41Z</time>
      </trkpt>
      <trkpt lat="44.98701" lon="4.56465">
        <ele>327</ele>
        <time>2015-12-10T08:09:49Z</time>
      </trkpt>
      <trkpt lat="44.98708" lon="4.5646">
        <ele>327</ele>
        <time>2015-12-10T08:09:53Z</time>
      </trkpt>
      <trkpt lat="44.98713" lon="4.56463">
        <ele>327</ele>
        <time>2015-12-10T08:09:57Z</time>
      </trkpt>
      <trkpt lat="44.98722" lon="4.56456">
        <ele>327</ele>
        <time>2015-12-10T08:10:01Z</time>
      </trkpt>
      <trkpt lat="44.98729" lon="4.56456">
        <ele>328</ele>
        <time>2015-12-10T08:10:06Z</time>
      </trkpt>
      <trkpt lat="44.9874" lon="4.56449">
        <ele>327</ele>
        <time>2015-12-10T08:10:11Z</time>
      </trkpt>
      <trkpt lat="44.98747" lon="4.56444">
        <ele>328</ele>
        <time>2015-12-10T08:10:14Z</time>
      </trkpt>
      <trkpt lat="44.98753" lon="4.56438">
        <ele>328</ele>
        <time>2015-12-10T08:10:18Z</time>
      </trkpt>
      <trkpt lat="44.98759" lon="4.5643">
        <ele>328</ele>
        <time>2015-12-10T08:10:24Z</time>
      </trkpt>
      <trkpt lat="44.98774" lon="4.56426">
        <ele>328</ele>
        <time>2015-12-10T08:10:29Z</time>
      </trkpt>
      <trkpt lat="44.98783" lon="4.56423">
        <ele>329</ele>
        <time>2015-12-10T08:10:35Z</time>
      </trkpt>
      <trkpt lat="44.9879" lon="4.56423">
        <ele>329</ele>
        <time>2015-12-10T08:10:38Z</time>
      </trkpt>
      <trkpt lat="44.98799" lon="4.56423">
        <ele>330</ele>
        <time>2015-12-10T08:10:42Z</time>
      </trkpt>
      <trkpt lat="44.98808" lon="4.56417">
        <ele>331</ele>
        <time>2015-12-10T08:10:45Z</time>
      </trkpt>
      <trkpt lat="44.98818" lon="4.56407">
        <ele>332</ele>
        <time>2015-12-10T08:10:49Z</time>
      </trkpt>
      <trkpt lat="44.98832" lon="4.56391">
        <ele>335</ele>
        <time>2015-12-10T08:10:54Z</time>
      </trkpt>
      <trkpt lat="44.98843" lon="4.56372">
        <ele>339</ele>
        <time>2015-12-10T08:10:59Z</time>
      </trkpt>
      <trkpt lat="44.98843" lon="4.56365">
        <ele>341</ele>
        <time>2015-12-10T08:11:02Z</time>
      </trkpt>
      <trkpt lat="44.98839" lon="4.56357">
        <ele>342</ele>
        <time>2015-12-10T08:11:05Z</time>
      </trkpt>
      <trkpt lat="44.98831" lon="4.56342">
        <ele>343</ele>
        <time>2015-12-10T08:11:10Z</time>
      </trkpt>
      <trkpt lat="44.98825" lon="4.56335">
        <ele>344</ele>
        <time>2015-12-10T08:11:13Z</time>
      </trkpt>
      <trkpt lat="44.98821" lon="4.56331">
        <ele>344</ele>
        <time>2015-12-10T08:11:16Z</time>
      </trkpt>
      <trkpt lat="44.98815" lon="4.56325">
        <ele>344</ele>
        <time>2015-12-10T08:11:19Z</time>
      </trkpt>
      <trkpt lat="44.98805" lon="4.56315">
        <ele>345</ele>
        <time>2015-12-10T08:11:23Z</time>
      </trkpt>
      <trkpt lat="44.98793" lon="4.56305">
        <ele>346</ele>
        <time>2015-12-10T08:11:28Z</time>
      </trkpt>
      <trkpt lat="44.98783" lon="4.56298">
        <ele>348</ele>
        <time>2015-12-10T08:11:33Z</time>
      </trkpt>
      <trkpt lat="44.98772" lon="4.56292">
        <ele>349</ele>
        <time>2015-12-10T08:11:37Z</time>
      </trkpt>
      <trkpt lat="44.98761" lon="4.5628">
        <ele>350</ele>
        <time>2015-12-10T08:11:42Z</time>
      </trkpt>
      <trkpt lat="44.98753" lon="4.56272">
        <ele>350</ele>
        <time>2015-12-10T08:11:46Z</time>
      </trkpt>
      <trkpt lat="44.98749" lon="4.56267">
        <ele>351</ele>
        <time>2015-12-10T08:11:49Z</time>
      </trkpt>
      <trkpt lat="44.98741" lon="4.56261">
        <ele>352</ele>
        <time>2015-12-10T08:11:53Z</time>
      </trkpt>
      <trkpt lat="44.9873" lon="4.56252">
        <ele>353</ele>
        <time>2015-12-10T08:11:58Z</time>
      </trkpt>
      <trkpt lat="44.9872" lon="4.56245">
        <ele>353</ele>
        <time>2015-12-10T08:12:03Z</time>
      </trkpt>
      <trkpt lat="44.98711" lon="4.56247">
        <ele>353</ele>
        <time>2015-12-10T08:12:07Z</time>
      </trkpt>
      <trkpt lat="44.98704" lon="4.56246">
        <ele>354</ele>
        <time>2015-12-10T08:12:11Z</time>
      </trkpt>
      <trkpt lat="44.98694" lon="4.56245">
        <ele>354</ele>
        <time>2015-12-10T08:12:15Z</time>
      </trkpt>
      <trkpt lat="44.98684" lon="4.56241">
        <ele>355</ele>
        <time>2015-12-10T08:12:20Z</time>
      </trkpt>
      <trkpt lat="44.98675" lon="4.56239">
        <ele>356</ele>
        <time>2015-12-10T08:12:24Z</time>
      </trkpt>
      <trkpt lat="44.98665" lon="4.56237">
        <ele>356</ele>
        <time>2015-12-10T08:12:28Z</time>
      </trkpt>
      <trkpt lat="44.98653" lon="4.56234">
        <ele>357</ele>
        <time>2015-12-10T08:12:33Z</time>
      </trkpt>
      <trkpt lat="44.98646" lon="4.56231">
        <ele>358</ele>
        <time>2015-12-10T08:12:37Z</time>
      </trkpt>
      <trkpt lat="44.9864" lon="4.56229">
        <ele>358</ele>
        <time>2015-12-10T08:12:40Z</time>
      </trkpt>
      <trkpt lat="44.98634" lon="4.56228">
        <ele>358</ele>
        <time>2015-12-10T08:12:43Z</time>
      </trkpt>
      <trkpt lat="44.98627" lon="4.56229">
        <ele>358</ele>
        <time>2015-12-10T08:12:47Z</time>
      </trkpt>
      <trkpt lat="44.98619" lon="4.56231">
        <ele>358</ele>
        <time>2015-12-10T08:12:52Z</time>
      </trkpt>
      <trkpt lat="44.98608" lon="4.56225">
        <ele>358</ele>
        <time>2015-12-10T08:12:57Z</time>
      </trkpt>
      <trkpt lat="44.986" lon="4.56224">
        <ele>359</ele>
        <time>2015-12-10T08:13:01Z</time>
      </trkpt>
      <trkpt lat="44.98591" lon="4.56221">
        <ele>359</ele>
        <time>2015-12-10T08:13:04Z</time>
      </trkpt>
      <trkpt lat="44.98582" lon="4.56219">
        <ele>359</ele>
        <time>2015-12-10T08:13:07Z</time>
      </trkpt>
      <trkpt lat="44.98572" lon="4.56213">
        <ele>360</ele>
        <time>2015-12-10T08:13:11Z</time>
      </trkpt>
      <trkpt lat="44.98561" lon="4.56211">
        <ele>361</ele>
        <time>2015-12-10T08:13:15Z</time>
      </trkpt>
      <trkpt lat="44.98553" lon="4.56212">
        <ele>361</ele>
        <time>2015-12-10T08:13:20Z</time>
      </trkpt>
      <trkpt lat="44.98543" lon="4.56208">
        <ele>362</ele>
        <time>2015-12-10T08:13:24Z</time>
      </trkpt>
      <trkpt lat="44.98533" lon="4.56207">
        <ele>362</ele>
        <time>2015-12-10T08:13:28Z</time>
      </trkpt>
      <trkpt lat="44.98524" lon="4.56204">
        <ele>363</ele>
        <time>2015-12-10T08:13:32Z</time>
      </trkpt>
      <trkpt lat="44.98514" lon="4.562">
        <ele>363</ele>
        <time>2015-12-10T08:13:36Z</time>
      </trkpt>
      <trkpt lat="44.98507" lon="4.56198">
        <ele>363</ele>
        <time>2015-12-10T08:13:40Z</time>
      </trkpt>
      <trkpt lat="44.98501" lon="4.56193">
        <ele>363</ele>
        <time>2015-12-10T08:13:44Z</time>
      </trkpt>
      <trkpt lat="44.98494" lon="4.56185">
        <ele>363</ele>
        <time>2015-12-10T08:13:49Z</time>
      </trkpt>
      <trkpt lat="44.98488" lon="4.5618">
        <ele>363</ele>
        <time>2015-12-10T08:13:53Z</time>
      </trkpt>
      <trkpt lat="44.98482" lon="4.56171">
        <ele>363</ele>
        <time>2015-12-10T08:13:57Z</time>
      </trkpt>
      <trkpt lat="44.98475" lon="4.56164">
        <ele>364</ele>
        <time>2015-12-10T08:14:01Z</time>
      </trkpt>
      <trkpt lat="44.98468" lon="4.56155">
        <ele>365</ele>
        <time>2015-12-10T08:14:08Z</time>
      </trkpt>
      <trkpt lat="44.98452" lon="4.56134">
        <ele>365</ele>
        <time>2015-12-10T08:14:13Z</time>
      </trkpt>
      <trkpt lat="44.98448" lon="4.56125">
        <ele>366</ele>
        <time>2015-12-10T08:14:19Z</time>
      </trkpt>
      <trkpt lat="44.98442" lon="4.56116">
        <ele>366</ele>
        <time>2015-12-10T08:14:25Z</time>
      </trkpt>
      <trkpt lat="44.98437" lon="4.56105">
        <ele>366</ele>
        <time>2015-12-10T08:14:30Z</time>
      </trkpt>
      <trkpt lat="44.98431" lon="4.56095">
        <ele>367</ele>
        <time>2015-12-10T08:14:34Z</time>
      </trkpt>
      <trkpt lat="44.9842" lon="4.5608">
        <ele>368</ele>
        <time>2015-12-10T08:14:38Z</time>
      </trkpt>
      <trkpt lat="44.98415" lon="4.56069">
        <ele>368</ele>
        <time>2015-12-10T08:14:41Z</time>
      </trkpt>
      <trkpt lat="44.98407" lon="4.5606">
        <ele>369</ele>
        <time>2015-12-10T08:14:45Z</time>
      </trkpt>
      <trkpt lat="44.984" lon="4.56055">
        <ele>370</ele>
        <time>2015-12-10T08:14:48Z</time>
      </trkpt>
      <trkpt lat="44.98392" lon="4.56048">
        <ele>370</ele>
        <time>2015-12-10T08:14:52Z</time>
      </trkpt>
      <trkpt lat="44.98382" lon="4.56039">
        <ele>371</ele>
        <time>2015-12-10T08:14:57Z</time>
      </trkpt>
      <trkpt lat="44.98372" lon="4.56028">
        <ele>372</ele>
        <time>2015-12-10T08:15:02Z</time>
      </trkpt>
      <trkpt lat="44.98367" lon="4.56022">
        <ele>373</ele>
        <time>2015-12-10T08:15:05Z</time>
      </trkpt>
      <trkpt lat="44.98358" lon="4.56011">
        <ele>374</ele>
        <time>2015-12-10T08:15:10Z</time>
      </trkpt>
      <trkpt lat="44.98348" lon="4.56004">
        <ele>374</ele>
        <time>2015-12-10T08:15:15Z</time>
      </trkpt>
      <trkpt lat="44.98342" lon="4.55996">
        <ele>375</ele>
        <time>2015-12-10T08:15:20Z</time>
      </trkpt>
      <trkpt lat="44.98332" lon="4.55991">
        <ele>375</ele>
        <time>2015-12-10T08:15:25Z</time>
      </trkpt>
      <trkpt lat="44.98323" lon="4.55984">
        <ele>375</ele>
        <time>2015-12-10T08:15:30Z</time>
      </trkpt>
      <trkpt lat="44.98319" lon="4.55978">
        <ele>376</ele>
        <time>2015-12-10T08:15:33Z</time>
      </trkpt>
      <trkpt lat="44.98309" lon="4.55966">
        <ele>376</ele>
        <time>2015-12-10T08:15:38Z</time>
      </trkpt>
      <trkpt lat="44.98302" lon="4.55956">
        <ele>377</ele>
        <time>2015-12-10T08:15:43Z</time>
      </trkpt>
      <trkpt lat="44.98292" lon="4.55948">
        <ele>377</ele>
        <time>2015-12-10T08:15:47Z</time>
      </trkpt>
      <trkpt lat="44.98288" lon="4.55938">
        <ele>378</ele>
        <time>2015-12-10T08:15:51Z</time>
      </trkpt>
      <trkpt lat="44.98285" lon="4.55927">
        <ele>378</ele>
        <time>2015-12-10T08:15:58Z</time>
      </trkpt>
      <trkpt lat="44.98282" lon="4.55916">
        <ele>379</ele>
        <time>2015-12-10T08:16:06Z</time>
      </trkpt>
      <trkpt lat="44.98276" lon="4.5591">
        <ele>379</ele>
        <time>2015-12-10T08:16:10Z</time>
      </trkpt>
      <trkpt lat="44.98269" lon="4.55898">
        <ele>380</ele>
        <time>2015-12-10T08:16:15Z</time>
      </trkpt>
      <trkpt lat="44.98265" lon="4.5589">
        <ele>381</ele>
        <time>2015-12-10T08:16:19Z</time>
      </trkpt>
      <trkpt lat="44.9826" lon="4.55884">
        <ele>381</ele>
        <time>2015-12-10T08:16:23Z</time>
      </trkpt>
      <trkpt lat="44.98251" lon="4.55871">
        <ele>381</ele>
        <time>2015-12-10T08:16:28Z</time>
      </trkpt>
      <trkpt lat="44.98243" lon="4.55862">
        <ele>381</ele>
        <time>2015-12-10T08:16:32Z</time>
      </trkpt>
      <trkpt lat="44.98232" lon="4.55852">
        <ele>382</ele>
        <time>2015-12-10T08:16:37Z</time>
      </trkpt>
      <trkpt lat="44.98224" lon="4.55843">
        <ele>382</ele>
        <time>2015-12-10T08:16:41Z</time>
      </trkpt>
      <trkpt lat="44.98216" lon="4.55831">
        <ele>383</ele>
        <time>2015-12-10T08:16:45Z</time>
      </trkpt>
      <trkpt lat="44.98213" lon="4.5582">
        <ele>384</ele>
        <time>2015-12-10T08:16:50Z</time>
      </trkpt>
      <trkpt lat="44.98212" lon="4.55811">
        <ele>384</ele>
        <time>2015-12-10T08:16:55Z</time>
      </trkpt>
      <trkpt lat="44.98208" lon="4.55795">
        <ele>385</ele>
        <time>2015-12-10T08:16:59Z</time>
      </trkpt>
      <trkpt lat="44.98205" lon="4.55781">
        <ele>385</ele>
        <time>2015-12-10T08:17:03Z</time>
      </trkpt>
      <trkpt lat="44.98197" lon="4.55771">
        <ele>384</ele>
        <time>2015-12-10T08:17:07Z</time>
      </trkpt>
      <trkpt lat="44.98191" lon="4.55758">
        <ele>384</ele>
        <time>2015-12-10T08:17:11Z</time>
      </trkpt>
      <trkpt lat="44.98187" lon="4.55748">
        <ele>384</ele>
        <time>2015-12-10T08:17:14Z</time>
      </trkpt>
      <trkpt lat="44.98179" lon="4.55737">
        <ele>383</ele>
        <time>2015-12-10T08:17:18Z</time>
      </trkpt>
      <trkpt lat="44.98166" lon="4.5572">
        <ele>384</ele>
        <time>2015-12-10T08:17:23Z</time>
      </trkpt>
      <trkpt lat="44.98159" lon="4.55713">
        <ele>383</ele>
        <time>2015-12-10T08:17:26Z</time>
      </trkpt>
      <trkpt lat="44.98152" lon="4.55699">
        <ele>383</ele>
        <time>2015-12-10T08:17:30Z</time>
      </trkpt>
      <trkpt lat="44.98149" lon="4.55686">
        <ele>382</ele>
        <time>2015-12-10T08:17:33Z</time>
      </trkpt>
      <trkpt lat="44.98148" lon="4.55672">
        <ele>382</ele>
        <time>2015-12-10T08:17:37Z</time>
      </trkpt>
      <trkpt lat="44.98152" lon="4.55662">
        <ele>382</ele>
        <time>2015-12-10T08:17:41Z</time>
      </trkpt>
      <trkpt lat="44.98158" lon="4.55651">
        <ele>382</ele>
        <time>2015-12-10T08:17:45Z</time>
      </trkpt>
      <trkpt lat="44.98164" lon="4.5564">
        <ele>382</ele>
        <time>2015-12-10T08:17:49Z</time>
      </trkpt>
      <trkpt lat="44.98165" lon="4.55621">
        <ele>383</ele>
        <time>2015-12-10T08:17:54Z</time>
      </trkpt>
      <trkpt lat="44.98168" lon="4.55604">
        <ele>384</ele>
        <time>2015-12-10T08:17:58Z</time>
      </trkpt>
      <trkpt lat="44.98173" lon="4.55585">
        <ele>384</ele>
        <time>2015-12-10T08:18:02Z</time>
      </trkpt>
      <trkpt lat="44.98183" lon="4.55566">
        <ele>383</ele>
        <time>2015-12-10T08:18:07Z</time>
      </trkpt>
      <trkpt lat="44.98189" lon="4.55552">
        <ele>382</ele>
        <time>2015-12-10T08:18:11Z</time>
      </trkpt>
      <trkpt lat="44.98195" lon="4.55536">
        <ele>380</ele>
        <time>2015-12-10T08:18:16Z</time>
      </trkpt>
      <trkpt lat="44.982" lon="4.55526">
        <ele>379</ele>
        <time>2015-12-10T08:18:20Z</time>
      </trkpt>
      <trkpt lat="44.9821" lon="4.55512">
        <ele>378</ele>
        <time>2015-12-10T08:18:25Z</time>
      </trkpt>
      <trkpt lat="44.98212" lon="4.55496">
        <ele>378</ele>
        <time>2015-12-10T08:18:29Z</time>
      </trkpt>
      <trkpt lat="44.98214" lon="4.55487">
        <ele>378</ele>
        <time>2015-12-10T08:18:34Z</time>
      </trkpt>
      <trkpt lat="44.98216" lon="4.55475">
        <ele>378</ele>
        <time>2015-12-10T08:18:38Z</time>
      </trkpt>
      <trkpt lat="44.98216" lon="4.55467">
        <ele>378</ele>
        <time>2015-12-10T08:18:42Z</time>
      </trkpt>
      <trkpt lat="44.9822" lon="4.55457">
        <ele>379</ele>
        <time>2015-12-10T08:18:49Z</time>
      </trkpt>
      <trkpt lat="44.98212" lon="4.55439">
        <ele>381</ele>
        <time>2015-12-10T08:18:54Z</time>
      </trkpt>
      <trkpt lat="44.98219" lon="4.55432">
        <ele>384</ele>
        <time>2015-12-10T08:19:02Z</time>
      </trkpt>
      <trkpt lat="44.98225" lon="4.5543">
        <ele>385</ele>
        <time>2015-12-10T08:19:07Z</time>
      </trkpt>
      <trkpt lat="44.98233" lon="4.55428">
        <ele>385</ele>
        <time>2015-12-10T08:19:11Z</time>
      </trkpt>
      <trkpt lat="44.98241" lon="4.55427">
        <ele>384</ele>
        <time>2015-12-10T08:19:15Z</time>
      </trkpt>
      <trkpt lat="44.98251" lon="4.55422">
        <ele>383</ele>
        <time>2015-12-10T08:19:19Z</time>
      </trkpt>
      <trkpt lat="44.98259" lon="4.55418">
        <ele>382</ele>
        <time>2015-12-10T08:19:24Z</time>
      </trkpt>
      <trkpt lat="44.98267" lon="4.55411">
        <ele>380</ele>
        <time>2015-12-10T08:19:29Z</time>
      </trkpt>
      <trkpt lat="44.98272" lon="4.55409">
        <ele>379</ele>
        <time>2015-12-10T08:19:35Z</time>
      </trkpt>
      <trkpt lat="44.98288" lon="4.55408">
        <ele>380</ele>
        <time>2015-12-10T08:19:40Z</time>
      </trkpt>
      <trkpt lat="44.98295" lon="4.55407">
        <ele>383</ele>
        <time>2015-12-10T08:19:49Z</time>
      </trkpt>
      <trkpt lat="44.98303" lon="4.55402">
        <ele>382</ele>
        <time>2015-12-10T08:19:54Z</time>
      </trkpt>
      <trkpt lat="44.9831" lon="4.55401">
        <ele>381</ele>
        <time>2015-12-10T08:20:01Z</time>
      </trkpt>
      <trkpt lat="44.98318" lon="4.55397">
        <ele>380</ele>
        <time>2015-12-10T08:20:06Z</time>
      </trkpt>
      <trkpt lat="44.98329" lon="4.55389">
        <ele>379</ele>
        <time>2015-12-10T08:20:11Z</time>
      </trkpt>
      <trkpt lat="44.98334" lon="4.55383">
        <ele>378</ele>
        <time>2015-12-10T08:20:14Z</time>
      </trkpt>
      <trkpt lat="44.98348" lon="4.55375">
        <ele>376</ele>
        <time>2015-12-10T08:20:19Z</time>
      </trkpt>
      <trkpt lat="44.98358" lon="4.5537">
        <ele>376</ele>
        <time>2015-12-10T08:20:22Z</time>
      </trkpt>
      <trkpt lat="44.98371" lon="4.5536">
        <ele>375</ele>
        <time>2015-12-10T08:20:26Z</time>
      </trkpt>
      <trkpt lat="44.98382" lon="4.5535">
        <ele>374</ele>
        <time>2015-12-10T08:20:31Z</time>
      </trkpt>
      <trkpt lat="44.98395" lon="4.55338">
        <ele>373</ele>
        <time>2015-12-10T08:20:36Z</time>
      </trkpt>
      <trkpt lat="44.98401" lon="4.55332">
        <ele>372</ele>
        <time>2015-12-10T08:20:39Z</time>
      </trkpt>
      <trkpt lat="44.98406" lon="4.55324">
        <ele>372</ele>
        <time>2015-12-10T08:20:43Z</time>
      </trkpt>
      <trkpt lat="44.98412" lon="4.55309">
        <ele>371</ele>
        <time>2015-12-10T08:20:48Z</time>
      </trkpt>
      <trkpt lat="44.98419" lon="4.55302">
        <ele>369</ele>
        <time>2015-12-10T08:20:57Z</time>
      </trkpt>
      <trkpt lat="44.98427" lon="4.55303">
        <ele>367</ele>
        <time>2015-12-10T08:21:02Z</time>
      </trkpt>
      <trkpt lat="44.98438" lon="4.55303">
        <ele>366</ele>
        <time>2015-12-10T08:21:06Z</time>
      </trkpt>
      <trkpt lat="44.98444" lon="4.55303">
        <ele>365</ele>
        <time>2015-12-10T08:21:10Z</time>
      </trkpt>
      <trkpt lat="44.98453" lon="4.55301">
        <ele>365</ele>
        <time>2015-12-10T08:21:14Z</time>
      </trkpt>
      <trkpt lat="44.98459" lon="4.55292">
        <ele>366</ele>
        <time>2015-12-10T08:21:20Z</time>
      </trkpt>
      <trkpt lat="44.98467" lon="4.5529">
        <ele>364</ele>
        <time>2015-12-10T08:21:27Z</time>
      </trkpt>
      <trkpt lat="44.98474" lon="4.55291">
        <ele>363</ele>
        <time>2015-12-10T08:21:33Z</time>
      </trkpt>
      <trkpt lat="44.98481" lon="4.55291">
        <ele>363</ele>
        <time>2015-12-10T08:21:37Z</time>
      </trkpt>
      <trkpt lat="44.98489" lon="4.55296">
        <ele>362</ele>
        <time>2015-12-10T08:21:42Z</time>
      </trkpt>
      <trkpt lat="44.98497" lon="4.55301">
        <ele>360</ele>
        <time>2015-12-10T08:21:48Z</time>
      </trkpt>
      <trkpt lat="44.98502" lon="4.553">
        <ele>360</ele>
        <time>2015-12-10T08:21:51Z</time>
      </trkpt>
      <trkpt lat="44.98515" lon="4.55297">
        <ele>358</ele>
        <time>2015-12-10T08:21:56Z</time>
      </trkpt>
      <trkpt lat="44.98525" lon="4.55295">
        <ele>358</ele>
        <time>2015-12-10T08:22:00Z</time>
      </trkpt>
      <trkpt lat="44.98535" lon="4.5529">
        <ele>358</ele>
        <time>2015-12-10T08:22:04Z</time>
      </trkpt>
      <trkpt lat="44.98545" lon="4.55285">
        <ele>358</ele>
        <time>2015-12-10T08:22:08Z</time>
      </trkpt>
      <trkpt lat="44.98554" lon="4.55279">
        <ele>358</ele>
        <time>2015-12-10T08:22:11Z</time>
      </trkpt>
      <trkpt lat="44.98568" lon="4.55267">
        <ele>357</ele>
        <time>2015-12-10T08:22:16Z</time>
      </trkpt>
      <trkpt lat="44.98575" lon="4.55257">
        <ele>357</ele>
        <time>2015-12-10T08:22:20Z</time>
      </trkpt>
      <trkpt lat="44.98581" lon="4.55246">
        <ele>356</ele>
        <time>2015-12-10T08:22:24Z</time>
      </trkpt>
      <trkpt lat="44.98588" lon="4.55233">
        <ele>354</ele>
        <time>2015-12-10T08:22:29Z</time>
      </trkpt>
      <trkpt lat="44.98592" lon="4.5522">
        <ele>352</ele>
        <time>2015-12-10T08:22:33Z</time>
      </trkpt>
      <trkpt lat="44.98595" lon="4.55208">
        <ele>349</ele>
        <time>2015-12-10T08:22:38Z</time>
      </trkpt>
      <trkpt lat="44.98598" lon="4.552">
        <ele>347</ele>
        <time>2015-12-10T08:22:42Z</time>
      </trkpt>
      <trkpt lat="44.986" lon="4.5519">
        <ele>345</ele>
        <time>2015-12-10T08:22:45Z</time>
      </trkpt>
      <trkpt lat="44.986" lon="4.55179">
        <ele>343</ele>
        <time>2015-12-10T08:22:49Z</time>
      </trkpt>
      <trkpt lat="44.986" lon="4.55163">
        <ele>341</ele>
        <time>2015-12-10T08:22:53Z</time>
      </trkpt>
      <trkpt lat="44.98598" lon="4.55151">
        <ele>339</ele>
        <time>2015-12-10T08:22:56Z</time>
      </trkpt>
      <trkpt lat="44.98597" lon="4.55138">
        <ele>337</ele>
        <time>2015-12-10T08:23:00Z</time>
      </trkpt>
      <trkpt lat="44.98592" lon="4.55115">
        <ele>335</ele>
        <time>2015-12-10T08:23:05Z</time>
      </trkpt>
      <trkpt lat="44.9859" lon="4.55104">
        <ele>333</ele>
        <time>2015-12-10T08:23:08Z</time>
      </trkpt>
      <trkpt lat="44.98593" lon="4.55092">
        <ele>332</ele>
        <time>2015-12-10T08:23:13Z</time>
      </trkpt>
      <trkpt lat="44.98601" lon="4.55087">
        <ele>329</ele>
        <time>2015-12-10T08:23:18Z</time>
      </trkpt>
      <trkpt lat="44.98612" lon="4.55081">
        <ele>326</ele>
        <time>2015-12-10T08:23:23Z</time>
      </trkpt>
      <trkpt lat="44.98618" lon="4.55076">
        <ele>324</ele>
        <time>2015-12-10T08:23:26Z</time>
      </trkpt>
      <trkpt lat="44.98623" lon="4.55066">
        <ele>321</ele>
        <time>2015-12-10T08:23:30Z</time>
      </trkpt>
      <trkpt lat="44.98624" lon="4.55056">
        <ele>318</ele>
        <time>2015-12-10T08:23:34Z</time>
      </trkpt>
      <trkpt lat="44.98624" lon="4.55045">
        <ele>316</ele>
        <time>2015-12-10T08:23:38Z</time>
      </trkpt>
      <trkpt lat="44.98623" lon="4.55024">
        <ele>312</ele>
        <time>2015-12-10T08:23:43Z</time>
      </trkpt>
      <trkpt lat="44.98622" lon="4.55012">
        <ele>310</ele>
        <time>2015-12-10T08:23:46Z</time>
      </trkpt>
      <trkpt lat="44.98621" lon="4.55005">
        <ele>308</ele>
        <time>2015-12-10T08:23:50Z</time>
      </trkpt>
      <trkpt lat="44.98616" lon="4.54993">
        <ele>306</ele>
        <time>2015-12-10T08:23:53Z</time>
      </trkpt>
      <trkpt lat="44.98609" lon="4.54984">
        <ele>303</ele>
        <time>2015-12-10T08:23:58Z</time>
      </trkpt>
      <trkpt lat="44.98606" lon="4.54975">
        <ele>300</ele>
        <time>2015-12-10T08:24:02Z</time>
      </trkpt>
      <trkpt lat="44.986" lon="4.54968">
        <ele>298</ele>
        <time>2015-12-10T08:24:06Z</time>
      </trkpt>
      <trkpt lat="44.98598" lon="4.54959">
        <ele>296</ele>
        <time>2015-12-10T08:24:10Z</time>
      </trkpt>
      <trkpt lat="44.98595" lon="4.54949">
        <ele>294</ele>
        <time>2015-12-10T08:24:14Z</time>
      </trkpt>
      <trkpt lat="44.98589" lon="4.54938">
        <ele>291</ele>
        <time>2015-12-10T08:24:18Z</time>
      </trkpt>
      <trkpt lat="44.98585" lon="4.54925">
        <ele>289</ele>
        <time>2015-12-10T08:24:22Z</time>
      </trkpt>
      <trkpt lat="44.98581" lon="4.54905">
        <ele>286</ele>
        <time>2015-12-10T08:24:27Z</time>
      </trkpt>
      <trkpt lat="44.98578" lon="4.54889">
        <ele>284</ele>
        <time>2015-12-10T08:24:31Z</time>
      </trkpt>
      <trkpt lat="44.98578" lon="4.54881">
        <ele>282</ele>
        <time>2015-12-10T08:24:34Z</time>
      </trkpt>
      <trkpt lat="44.98579" lon="4.54867">
        <ele>280</ele>
        <time>2015-12-10T08:24:38Z</time>
      </trkpt>
      <trkpt lat="44.9858" lon="4.54859">
        <ele>278</ele>
        <time>2015-12-10T08:24:42Z</time>
      </trkpt>
      <trkpt lat="44.98579" lon="4.54844">
        <ele>275</ele>
        <time>2015-12-10T08:24:46Z</time>
      </trkpt>
      <trkpt lat="44.98578" lon="4.54829">
        <ele>272</ele>
        <time>2015-12-10T08:24:50Z</time>
      </trkpt>
      <trkpt lat="44.98576" lon="4.54815">
        <ele>270</ele>
        <time>2015-12-10T08:24:54Z</time>
      </trkpt>
      <trkpt lat="44.98576" lon="4.54809">
        <ele>269</ele>
        <time>2015-12-10T08:24:57Z</time>
      </trkpt>
      <trkpt lat="44.98572" lon="4.54796">
        <ele>267</ele>
        <time>2015-12-10T08:25:00Z</time>
      </trkpt>
      <trkpt lat="44.98568" lon="4.54784">
        <ele>264</ele>
        <time>2015-12-10T08:25:04Z</time>
      </trkpt>
      <trkpt lat="44.98559" lon="4.54773">
        <ele>262</ele>
        <time>2015-12-10T08:25:08Z</time>
      </trkpt>
      <trkpt lat="44.9855" lon="4.54766">
        <ele>259</ele>
        <time>2015-12-10T08:25:13Z</time>
      </trkpt>
      <trkpt lat="44.98538" lon="4.54763">
        <ele>255</ele>
        <time>2015-12-10T08:25:18Z</time>
      </trkpt>
      <trkpt lat="44.98532" lon="4.54763">
        <ele>253</ele>
        <time>2015-12-10T08:25:21Z</time>
      </trkpt>
      <trkpt lat="44.98522" lon="4.5476">
        <ele>251</ele>
        <time>2015-12-10T08:25:25Z</time>
      </trkpt>
      <trkpt lat="44.98514" lon="4.54754">
        <ele>249</ele>
        <time>2015-12-10T08:25:28Z</time>
      </trkpt>
      <trkpt lat="44.98504" lon="4.54748">
        <ele>246</ele>
        <time>2015-12-10T08:25:32Z</time>
      </trkpt>
      <trkpt lat="44.98496" lon="4.54745">
        <ele>244</ele>
        <time>2015-12-10T08:25:36Z</time>
      </trkpt>
      <trkpt lat="44.98486" lon="4.54743">
        <ele>241</ele>
        <time>2015-12-10T08:25:40Z</time>
      </trkpt>
      <trkpt lat="44.98485" lon="4.54731">
        <ele>236</ele>
        <time>2015-12-10T08:25:48Z</time>
      </trkpt>
      <trkpt lat="44.98491" lon="4.54721">
        <ele>232</ele>
        <time>2015-12-10T08:25:53Z</time>
      </trkpt>
      <trkpt lat="44.98497" lon="4.54715">
        <ele>230</ele>
        <time>2015-12-10T08:25:57Z</time>
      </trkpt>
      <trkpt lat="44.98506" lon="4.54703">
        <ele>226</ele>
        <time>2015-12-10T08:26:02Z</time>
      </trkpt>
      <trkpt lat="44.98513" lon="4.54697">
        <ele>223</ele>
        <time>2015-12-10T08:26:06Z</time>
      </trkpt>
      <trkpt lat="44.98522" lon="4.54695">
        <ele>220</ele>
        <time>2015-12-10T08:26:12Z</time>
      </trkpt>
      <trkpt lat="44.98531" lon="4.54692">
        <ele>216</ele>
        <time>2015-12-10T08:26:17Z</time>
      </trkpt>
      <trkpt lat="44.98543" lon="4.54684">
        <ele>213</ele>
        <time>2015-12-10T08:26:22Z</time>
      </trkpt>
      <trkpt lat="44.98552" lon="4.54679">
        <ele>210</ele>
        <time>2015-12-10T08:26:26Z</time>
      </trkpt>
      <trkpt lat="44.9856" lon="4.54676">
        <ele>207</ele>
        <time>2015-12-10T08:26:30Z</time>
      </trkpt>
      <trkpt lat="44.98567" lon="4.54674">
        <ele>205</ele>
        <time>2015-12-10T08:26:34Z</time>
      </trkpt>
      <trkpt lat="44.98577" lon="4.54669">
        <ele>202</ele>
        <time>2015-12-10T08:26:38Z</time>
      </trkpt>
      <trkpt lat="44.98587" lon="4.54665">
        <ele>201</ele>
        <time>2015-12-10T08:26:41Z</time>
      </trkpt>
      <trkpt lat="44.986" lon="4.5466">
        <ele>197</ele>
        <time>2015-12-10T08:26:46Z</time>
      </trkpt>
      <trkpt lat="44.9861" lon="4.54654">
        <ele>195</ele>
        <time>2015-12-10T08:26:50Z</time>
      </trkpt>
      <trkpt lat="44.98616" lon="4.54646">
        <ele>192</ele>
        <time>2015-12-10T08:26:54Z</time>
      </trkpt>
      <trkpt lat="44.98622" lon="4.54638">
        <ele>189</ele>
        <time>2015-12-10T08:26:58Z</time>
      </trkpt>
      <trkpt lat="44.98629" lon="4.54628">
        <ele>187</ele>
        <time>2015-12-10T08:27:02Z</time>
      </trkpt>
      <trkpt lat="44.98634" lon="4.54617">
        <ele>184</ele>
        <time>2015-12-10T08:27:06Z</time>
      </trkpt>
      <trkpt lat="44.98631" lon="4.54607">
        <ele>177</ele>
        <time>2015-12-10T08:27:19Z</time>
      </trkpt>
      <trkpt lat="44.98622" lon="4.54609">
        <ele>172</ele>
        <time>2015-12-10T08:27:26Z</time>
      </trkpt>
      <trkpt lat="44.98616" lon="4.54609">
        <ele>170</ele>
        <time>2015-12-10T08:27:30Z</time>
      </trkpt>
      <trkpt lat="44.98607" lon="4.54611">
        <ele>167</ele>
        <time>2015-12-10T08:27:35Z</time>
      </trkpt>
      <trkpt lat="44.98597" lon="4.54618">
        <ele>164</ele>
        <time>2015-12-10T08:27:40Z</time>
      </trkpt>
      <trkpt lat="44.9859" lon="4.54616">
        <ele>161</ele>
        <time>2015-12-10T08:27:45Z</time>
      </trkpt>
      <trkpt lat="44.98584" lon="4.54611">
        <ele>158</ele>
        <time>2015-12-10T08:27:50Z</time>
      </trkpt>
      <trkpt lat="44.98576" lon="4.54612">
        <ele>155</ele>
        <time>2015-12-10T08:27:57Z</time>
      </trkpt>
      <trkpt lat="44.98571" lon="4.54609">
        <ele>153</ele>
        <time>2015-12-10T08:28:01Z</time>
      </trkpt>
      <trkpt lat="44.98566" lon="4.54603">
        <ele>152</ele>
        <time>2015-12-10T08:28:04Z</time>
      </trkpt>
      <trkpt lat="44.9856" lon="4.54596">
        <ele>150</ele>
        <time>2015-12-10T08:28:08Z</time>
      </trkpt>
      <trkpt lat="44.98552" lon="4.54587">
        <ele>148</ele>
        <time>2015-12-10T08:28:13Z</time>
      </trkpt>
      <trkpt lat="44.98544" lon="4.54579">
        <ele>147</ele>
        <time>2015-12-10T08:28:17Z</time>
      </trkpt>
      <trkpt lat="44.98534" lon="4.54574">
        <ele>146</ele>
        <time>2015-12-10T08:28:21Z</time>
      </trkpt>
      <trkpt lat="44.98528" lon="4.54571">
        <ele>144</ele>
        <time>2015-12-10T08:28:24Z</time>
      </trkpt>
      <trkpt lat="44.98519" lon="4.54567">
        <ele>143</ele>
        <time>2015-12-10T08:28:28Z</time>
      </trkpt>
      <trkpt lat="44.9851" lon="4.54561">
        <ele>140</ele>
        <time>2015-12-10T08:28:33Z</time>
      </trkpt>
      <trkpt lat="44.98502" lon="4.54554">
        <ele>138</ele>
        <time>2015-12-10T08:28:37Z</time>
      </trkpt>
      <trkpt lat="44.98494" lon="4.54547">
        <ele>136</ele>
        <time>2015-12-10T08:28:41Z</time>
      </trkpt>
      <trkpt lat="44.98481" lon="4.5454">
        <ele>134</ele>
        <time>2015-12-10T08:28:46Z</time>
      </trkpt>
      <trkpt lat="44.98473" lon="4.54538">
        <ele>133</ele>
        <time>2015-12-10T08:28:49Z</time>
      </trkpt>
      <trkpt lat="44.98465" lon="4.54536">
        <ele>132</ele>
        <time>2015-12-10T08:28:52Z</time>
      </trkpt>
      <trkpt lat="44.98456" lon="4.54533">
        <ele>130</ele>
        <time>2015-12-10T08:28:56Z</time>
      </trkpt>
      <trkpt lat="44.98446" lon="4.54529">
        <ele>128</ele>
        <time>2015-12-10T08:29:01Z</time>
      </trkpt>
      <trkpt lat="44.98435" lon="4.54526">
        <ele>126</ele>
        <time>2015-12-10T08:29:06Z</time>
      </trkpt>
      <trkpt lat="44.98427" lon="4.54524">
        <ele>124</ele>
        <time>2015-12-10T08:29:10Z</time>
      </trkpt>
      <trkpt lat="44.98417" lon="4.54525">
        <ele>122</ele>
        <time>2015-12-10T08:29:15Z</time>
      </trkpt>
      <trkpt lat="44.98406" lon="4.54523">
        <ele>120</ele>
        <time>2015-12-10T08:29:20Z</time>
      </trkpt>
      <trkpt lat="44.98397" lon="4.54524">
        <ele>118</ele>
        <time>2015-12-10T08:29:24Z</time>
      </trkpt>
      <trkpt lat="44.9839" lon="4.54527">
        <ele>116</ele>
        <time>2015-12-10T08:29:28Z</time>
      </trkpt>
      <trkpt lat="44.98382" lon="4.54528">
        <ele>115</ele>
        <time>2015-12-10T08:29:32Z</time>
      </trkpt>
      <trkpt lat="44.98372" lon="4.54528">
        <ele>113</ele>
        <time>2015-12-10T08:29:36Z</time>
      </trkpt>
      <trkpt lat="44.98363" lon="4.54526">
        <ele>111</ele>
        <time>2015-12-10T08:29:40Z</time>
      </trkpt>
      <trkpt lat="44.98356" lon="4.54527">
        <ele>110</ele>
        <time>2015-12-10T08:29:44Z</time>
      </trkpt>
      <trkpt lat="44.98348" lon="4.54529">
        <ele>106</ele>
        <time>2015-12-10T08:29:53Z</time>
      </trkpt>
      <trkpt lat="44.98339" lon="4.54531">
        <ele>103</ele>
        <time>2015-12-10T08:29:59Z</time>
      </trkpt>
      <trkpt lat="44.98335" lon="4.54534">
        <ele>101</ele>
        <time>2015-12-10T08:30:04Z</time>
      </trkpt>
      <trkpt lat="44.98326" lon="4.54512">
        <ele>111</ele>
        <time>2015-12-10T08:30:08Z</time>
      </trkpt>
      <trkpt lat="44.98321" lon="4.54488">
        <ele>123</ele>
        <time>2015-12-10T08:30:12Z</time>
      </trkpt>
      <trkpt lat="44.98263" lon="4.54372">
        <ele>164</ele>
        <time>2015-12-10T08:30:15Z</time>
      </trkpt>
      <trkpt lat="44.98253" lon="4.54314">
        <ele>183</ele>
        <time>2015-12-10T08:30:20Z</time>
      </trkpt>
      <trkpt lat="44.98257" lon="4.54304">
        <ele>188</ele>
        <time>2015-12-10T08:30:25Z</time>
      </trkpt>
      <trkpt lat="44.98258" lon="4.54292">
        <ele>200</ele>
        <time>2015-12-10T08:30:31Z</time>
      </trkpt>
      <trkpt lat="44.98266" lon="4.5429">
        <ele>207</ele>
        <time>2015-12-10T08:30:36Z</time>
      </trkpt>
      <trkpt lat="44.98273" lon="4.54289">
        <ele>212</ele>
        <time>2015-12-10T08:30:39Z</time>
      </trkpt>
      <trkpt lat="44.9828" lon="4.54286">
        <ele>217</ele>
        <time>2015-12-10T08:30:43Z</time>
      </trkpt>
      <trkpt lat="44.9829" lon="4.54277">
        <ele>221</ele>
        <time>2015-12-10T08:30:48Z</time>
      </trkpt>
      <trkpt lat="44.98295" lon="4.5427">
        <ele>225</ele>
        <time>2015-12-10T08:30:52Z</time>
      </trkpt>
      <trkpt lat="44.98301" lon="4.54264">
        <ele>230</ele>
        <time>2015-12-10T08:30:59Z</time>
      </trkpt>
      <trkpt lat="44.98307" lon="4.54257">
        <ele>233</ele>
        <time>2015-12-10T08:31:04Z</time>
      </trkpt>
      <trkpt lat="44.98315" lon="4.54254">
        <ele>235</ele>
        <time>2015-12-10T08:31:08Z</time>
      </trkpt>
      <trkpt lat="44.98323" lon="4.54249">
        <ele>238</ele>
        <time>2015-12-10T08:31:17Z</time>
      </trkpt>
      <trkpt lat="44.9833" lon="4.54247">
        <ele>240</ele>
        <time>2015-12-10T08:31:25Z</time>
      </trkpt>
      <trkpt lat="44.98337" lon="4.54249">
        <ele>243</ele>
        <time>2015-12-10T08:31:31Z</time>
      </trkpt>
      <trkpt lat="44.98343" lon="4.54256">
        <ele>246</ele>
        <time>2015-12-10T08:31:38Z</time>
      </trkpt>
      <trkpt lat="44.98351" lon="4.54254">
        <ele>247</ele>
        <time>2015-12-10T08:31:42Z</time>
      </trkpt>
      <trkpt lat="44.98359" lon="4.54251">
        <ele>248</ele>
        <time>2015-12-10T08:31:50Z</time>
      </trkpt>
      <trkpt lat="44.98365" lon="4.54249">
        <ele>250</ele>
        <time>2015-12-10T08:31:54Z</time>
      </trkpt>
      <trkpt lat="44.98374" lon="4.54247">
        <ele>250</ele>
        <time>2015-12-10T08:31:59Z</time>
      </trkpt>
      <trkpt lat="44.98381" lon="4.54247">
        <ele>252</ele>
        <time>2015-12-10T08:32:04Z</time>
      </trkpt>
      <trkpt lat="44.98387" lon="4.54245">
        <ele>253</ele>
        <time>2015-12-10T08:32:07Z</time>
      </trkpt>
      <trkpt lat="44.98395" lon="4.54244">
        <ele>255</ele>
        <time>2015-12-10T08:32:12Z</time>
      </trkpt>
      <trkpt lat="44.98403" lon="4.5424">
        <ele>256</ele>
        <time>2015-12-10T08:32:16Z</time>
      </trkpt>
      <trkpt lat="44.9841" lon="4.54234">
        <ele>257</ele>
        <time>2015-12-10T08:32:20Z</time>
      </trkpt>
      <trkpt lat="44.98416" lon="4.54232">
        <ele>259</ele>
        <time>2015-12-10T08:32:24Z</time>
      </trkpt>
      <trkpt lat="44.98423" lon="4.54227">
        <ele>260</ele>
        <time>2015-12-10T08:32:29Z</time>
      </trkpt>
      <trkpt lat="44.98429" lon="4.54218">
        <ele>263</ele>
        <time>2015-12-10T08:32:40Z</time>
      </trkpt>
      <trkpt lat="44.98423" lon="4.54213">
        <ele>264</ele>
        <time>2015-12-10T08:32:48Z</time>
      </trkpt>
      <trkpt lat="44.98417" lon="4.5421">
        <ele>264</ele>
        <time>2015-12-10T08:32:54Z</time>
      </trkpt>
      <trkpt lat="44.9841" lon="4.54208">
        <ele>264</ele>
        <time>2015-12-10T08:32:59Z</time>
      </trkpt>
      <trkpt lat="44.98404" lon="4.54206">
        <ele>264</ele>
        <time>2015-12-10T08:33:03Z</time>
      </trkpt>
      <trkpt lat="44.98396" lon="4.54203">
        <ele>263</ele>
        <time>2015-12-10T08:33:07Z</time>
      </trkpt>
      <trkpt lat="44.98386" lon="4.54201">
        <ele>263</ele>
        <time>2015-12-10T08:33:12Z</time>
      </trkpt>
      <trkpt lat="44.98377" lon="4.54196">
        <ele>262</ele>
        <time>2015-12-10T08:33:17Z</time>
      </trkpt>
      <trkpt lat="44.98371" lon="4.54196">
        <ele>262</ele>
        <time>2015-12-10T08:33:20Z</time>
      </trkpt>
      <trkpt lat="44.98365" lon="4.54192">
        <ele>262</ele>
        <time>2015-12-10T08:33:24Z</time>
      </trkpt>
      <trkpt lat="44.9836" lon="4.54182">
        <ele>262</ele>
        <time>2015-12-10T08:33:32Z</time>
      </trkpt>
      <trkpt lat="44.98353" lon="4.54175">
        <ele>262</ele>
        <time>2015-12-10T08:33:38Z</time>
      </trkpt>
      <trkpt lat="44.98345" lon="4.54169">
        <ele>262</ele>
        <time>2015-12-10T08:33:42Z</time>
      </trkpt>
      <trkpt lat="44.98338" lon="4.54161">
        <ele>262</ele>
        <time>2015-12-10T08:33:46Z</time>
      </trkpt>
      <trkpt lat="44.98328" lon="4.54153">
        <ele>261</ele>
        <time>2015-12-10T08:33:51Z</time>
      </trkpt>
      <trkpt lat="44.9832" lon="4.54144">
        <ele>261</ele>
        <time>2015-12-10T08:33:55Z</time>
      </trkpt>
      <trkpt lat="44.98313" lon="4.54137">
        <ele>260</ele>
        <time>2015-12-10T08:33:59Z</time>
      </trkpt>
      <trkpt lat="44.98305" lon="4.54127">
        <ele>260</ele>
        <time>2015-12-10T08:34:04Z</time>
      </trkpt>
      <trkpt lat="44.98295" lon="4.54117">
        <ele>259</ele>
        <time>2015-12-10T08:34:09Z</time>
      </trkpt>
      <trkpt lat="44.9829" lon="4.5411">
        <ele>258</ele>
        <time>2015-12-10T08:34:13Z</time>
      </trkpt>
      <trkpt lat="44.98285" lon="4.54103">
        <ele>257</ele>
        <time>2015-12-10T08:34:16Z</time>
      </trkpt>
      <trkpt lat="44.98281" lon="4.54097">
        <ele>257</ele>
        <time>2015-12-10T08:34:19Z</time>
      </trkpt>
      <trkpt lat="44.98277" lon="4.5409">
        <ele>257</ele>
        <time>2015-12-10T08:34:22Z</time>
      </trkpt>
      <trkpt lat="44.98272" lon="4.54081">
        <ele>256</ele>
        <time>2015-12-10T08:34:26Z</time>
      </trkpt>
      <trkpt lat="44.98266" lon="4.54072">
        <ele>254</ele>
        <time>2015-12-10T08:34:30Z</time>
      </trkpt>
      <trkpt lat="44.98261" lon="4.54062">
        <ele>253</ele>
        <time>2015-12-10T08:34:34Z</time>
      </trkpt>
      <trkpt lat="44.98255" lon="4.54054">
        <ele>252</ele>
        <time>2015-12-10T08:34:38Z</time>
      </trkpt>
      <trkpt lat="44.98249" lon="4.54046">
        <ele>251</ele>
        <time>2015-12-10T08:34:42Z</time>
      </trkpt>
      <trkpt lat="44.9824" lon="4.54036">
        <ele>250</ele>
        <time>2015-12-10T08:34:47Z</time>
      </trkpt>
      <trkpt lat="44.98234" lon="4.54026">
        <ele>250</ele>
        <time>2015-12-10T08:34:51Z</time>
      </trkpt>
      <trkpt lat="44.9823" lon="4.54019">
        <ele>249</ele>
        <time>2015-12-10T08:34:54Z</time>
      </trkpt>
      <trkpt lat="44.98225" lon="4.54009">
        <ele>248</ele>
        <time>2015-12-10T08:34:58Z</time>
      </trkpt>
      <trkpt lat="44.98221" lon="4.53999">
        <ele>247</ele>
        <time>2015-12-10T08:35:03Z</time>
      </trkpt>
      <trkpt lat="44.98217" lon="4.53988">
        <ele>246</ele>
        <time>2015-12-10T08:35:08Z</time>
      </trkpt>
      <trkpt lat="44.98223" lon="4.53974">
        <ele>245</ele>
        <time>2015-12-10T08:35:13Z</time>
      </trkpt>
      <trkpt lat="44.9823" lon="4.53966">
        <ele>244</ele>
        <time>2015-12-10T08:35:17Z</time>
      </trkpt>
      <trkpt lat="44.98235" lon="4.53954">
        <ele>245</ele>
        <time>2015-12-10T08:35:21Z</time>
      </trkpt>
      <trkpt lat="44.98242" lon="4.53939">
        <ele>243</ele>
        <time>2015-12-10T08:35:26Z</time>
      </trkpt>
      <trkpt lat="44.98246" lon="4.53927">
        <ele>244</ele>
        <time>2015-12-10T08:35:30Z</time>
      </trkpt>
      <trkpt lat="44.9825" lon="4.53919">
        <ele>244</ele>
        <time>2015-12-10T08:35:33Z</time>
      </trkpt>
      <trkpt lat="44.98256" lon="4.53902">
        <ele>245</ele>
        <time>2015-12-10T08:35:38Z</time>
      </trkpt>
      <trkpt lat="44.98259" lon="4.53885">
        <ele>245</ele>
        <time>2015-12-10T08:35:42Z</time>
      </trkpt>
      <trkpt lat="44.98264" lon="4.53872">
        <ele>245</ele>
        <time>2015-12-10T08:35:46Z</time>
      </trkpt>
      <trkpt lat="44.98268" lon="4.5386">
        <ele>245</ele>
        <time>2015-12-10T08:35:50Z</time>
      </trkpt>
      <trkpt lat="44.98271" lon="4.53842">
        <ele>245</ele>
        <time>2015-12-10T08:35:54Z</time>
      </trkpt>
      <trkpt lat="44.98274" lon="4.53818">
        <ele>244</ele>
        <time>2015-12-10T08:35:59Z</time>
      </trkpt>
      <trkpt lat="44.98276" lon="4.53805">
        <ele>243</ele>
        <time>2015-12-10T08:36:03Z</time>
      </trkpt>
      <trkpt lat="44.98278" lon="4.53795">
        <ele>245</ele>
        <time>2015-12-10T08:36:06Z</time>
      </trkpt>
      <trkpt lat="44.98282" lon="4.53782">
        <ele>245</ele>
        <time>2015-12-10T08:36:10Z</time>
      </trkpt>
      <trkpt lat="44.98284" lon="4.53775">
        <ele>244</ele>
        <time>2015-12-10T08:36:13Z</time>
      </trkpt>
      <trkpt lat="44.98288" lon="4.53761">
        <ele>244</ele>
        <time>2015-12-10T08:36:18Z</time>
      </trkpt>
      <trkpt lat="44.9829" lon="4.53751">
        <ele>244</ele>
        <time>2015-12-10T08:36:22Z</time>
      </trkpt>
      <trkpt lat="44.98289" lon="4.53735">
        <ele>245</ele>
        <time>2015-12-10T08:36:26Z</time>
      </trkpt>
      <trkpt lat="44.98288" lon="4.53718">
        <ele>245</ele>
        <time>2015-12-10T08:36:30Z</time>
      </trkpt>
      <trkpt lat="44.98287" lon="4.53703">
        <ele>245</ele>
        <time>2015-12-10T08:36:34Z</time>
      </trkpt>
      <trkpt lat="44.98288" lon="4.53688">
        <ele>245</ele>
        <time>2015-12-10T08:36:39Z</time>
      </trkpt>
      <trkpt lat="44.98291" lon="4.5368">
        <ele>245</ele>
        <time>2015-12-10T08:36:42Z</time>
      </trkpt>
      <trkpt lat="44.98293" lon="4.53665">
        <ele>245</ele>
        <time>2015-12-10T08:36:47Z</time>
      </trkpt>
      <trkpt lat="44.98293" lon="4.53653">
        <ele>246</ele>
        <time>2015-12-10T08:36:52Z</time>
      </trkpt>
      <trkpt lat="44.98294" lon="4.5364">
        <ele>247</ele>
        <time>2015-12-10T08:36:58Z</time>
      </trkpt>
      <trkpt lat="44.98291" lon="4.53633">
        <ele>247</ele>
        <time>2015-12-10T08:37:02Z</time>
      </trkpt>
      <trkpt lat="44.98295" lon="4.53623">
        <ele>247</ele>
        <time>2015-12-10T08:37:06Z</time>
      </trkpt>
      <trkpt lat="44.98302" lon="4.5361">
        <ele>247</ele>
        <time>2015-12-10T08:37:11Z</time>
      </trkpt>
      <trkpt lat="44.98307" lon="4.53603">
        <ele>246</ele>
        <time>2015-12-10T08:37:14Z</time>
      </trkpt>
      <trkpt lat="44.98312" lon="4.53595">
        <ele>246</ele>
        <time>2015-12-10T08:37:18Z</time>
      </trkpt>
      <trkpt lat="44.9832" lon="4.53585">
        <ele>246</ele>
        <time>2015-12-10T08:37:23Z</time>
      </trkpt>
      <trkpt lat="44.98328" lon="4.53578">
        <ele>246</ele>
        <time>2015-12-10T08:37:27Z</time>
      </trkpt>
      <trkpt lat="44.98333" lon="4.53569">
        <ele>245</ele>
        <time>2015-12-10T08:37:32Z</time>
      </trkpt>
      <trkpt lat="44.98337" lon="4.53561">
        <ele>245</ele>
        <time>2015-12-10T08:37:36Z</time>
      </trkpt>
      <trkpt lat="44.98342" lon="4.53553">
        <ele>244</ele>
        <time>2015-12-10T08:37:41Z</time>
      </trkpt>
      <trkpt lat="44.98346" lon="4.53546">
        <ele>244</ele>
        <time>2015-12-10T08:37:45Z</time>
      </trkpt>
      <trkpt lat="44.98349" lon="4.53537">
        <ele>244</ele>
        <time>2015-12-10T08:37:48Z</time>
      </trkpt>
      <trkpt lat="44.98352" lon="4.53527">
        <ele>244</ele>
        <time>2015-12-10T08:37:51Z</time>
      </trkpt>
      <trkpt lat="44.98356" lon="4.53515">
        <ele>245</ele>
        <time>2015-12-10T08:37:55Z</time>
      </trkpt>
      <trkpt lat="44.98361" lon="4.53505">
        <ele>245</ele>
        <time>2015-12-10T08:37:59Z</time>
      </trkpt>
      <trkpt lat="44.98369" lon="4.53494">
        <ele>245</ele>
        <time>2015-12-10T08:38:04Z</time>
      </trkpt>
      <trkpt lat="44.98376" lon="4.53486">
        <ele>245</ele>
        <time>2015-12-10T08:38:08Z</time>
      </trkpt>
      <trkpt lat="44.98381" lon="4.53472">
        <ele>248</ele>
        <time>2015-12-10T08:38:13Z</time>
      </trkpt>
      <trkpt lat="44.98385" lon="4.53466">
        <ele>248</ele>
        <time>2015-12-10T08:38:16Z</time>
      </trkpt>
      <trkpt lat="44.98392" lon="4.53458">
        <ele>249</ele>
        <time>2015-12-10T08:38:20Z</time>
      </trkpt>
      <trkpt lat="44.98398" lon="4.53449">
        <ele>250</ele>
        <time>2015-12-10T08:38:23Z</time>
      </trkpt>
      <trkpt lat="44.98406" lon="4.53436">
        <ele>251</ele>
        <time>2015-12-10T08:38:28Z</time>
      </trkpt>
      <trkpt lat="44.98415" lon="4.53431">
        <ele>251</ele>
        <time>2015-12-10T08:38:33Z</time>
      </trkpt>
      <trkpt lat="44.98423" lon="4.53431">
        <ele>250</ele>
        <time>2015-12-10T08:38:37Z</time>
      </trkpt>
      <trkpt lat="44.98432" lon="4.53428">
        <ele>250</ele>
        <time>2015-12-10T08:38:42Z</time>
      </trkpt>
      <trkpt lat="44.98438" lon="4.53427">
        <ele>249</ele>
        <time>2015-12-10T08:38:45Z</time>
      </trkpt>
      <trkpt lat="44.98445" lon="4.53428">
        <ele>248</ele>
        <time>2015-12-10T08:38:48Z</time>
      </trkpt>
      <trkpt lat="44.98455" lon="4.53425">
        <ele>245</ele>
        <time>2015-12-10T08:38:53Z</time>
      </trkpt>
      <trkpt lat="44.98462" lon="4.53417">
        <ele>246</ele>
        <time>2015-12-10T08:38:57Z</time>
      </trkpt>
      <trkpt lat="44.98469" lon="4.53412">
        <ele>248</ele>
        <time>2015-12-10T08:39:02Z</time>
      </trkpt>
      <trkpt lat="44.98475" lon="4.53404">
        <ele>250</ele>
        <time>2015-12-10T08:39:06Z</time>
      </trkpt>
      <trkpt lat="44.98481" lon="4.53402">
        <ele>249</ele>
        <time>2015-12-10T08:39:09Z</time>
      </trkpt>
      <trkpt lat="44.9849" lon="4.53398">
        <ele>248</ele>
        <time>2015-12-10T08:39:14Z</time>
      </trkpt>
      <trkpt lat="44.98496" lon="4.53398">
        <ele>246</ele>
        <time>2015-12-10T08:39:17Z</time>
      </trkpt>
      <trkpt lat="44.98506" lon="4.53396">
        <ele>245</ele>
        <time>2015-12-10T08:39:21Z</time>
      </trkpt>
      <trkpt lat="44.98514" lon="4.53393">
        <ele>242</ele>
        <time>2015-12-10T08:39:25Z</time>
      </trkpt>
      <trkpt lat="44.98525" lon="4.53386">
        <ele>240</ele>
        <time>2015-12-10T08:39:30Z</time>
      </trkpt>
      <trkpt lat="44.98532" lon="4.53385">
        <ele>238</ele>
        <time>2015-12-10T08:39:33Z</time>
      </trkpt>
      <trkpt lat="44.98542" lon="4.53382">
        <ele>236</ele>
        <time>2015-12-10T08:39:38Z</time>
      </trkpt>
      <trkpt lat="44.9855" lon="4.53376">
        <ele>234</ele>
        <time>2015-12-10T08:39:42Z</time>
      </trkpt>
      <trkpt lat="44.98556" lon="4.53371">
        <ele>234</ele>
        <time>2015-12-10T08:39:45Z</time>
      </trkpt>
      <trkpt lat="44.98558" lon="4.53365">
        <ele>232</ele>
        <time>2015-12-10T08:39:48Z</time>
      </trkpt>
      <trkpt lat="44.98558" lon="4.53354">
        <ele>230</ele>
        <time>2015-12-10T08:39:52Z</time>
      </trkpt>
      <trkpt lat="44.98557" lon="4.53342">
        <ele>227</ele>
        <time>2015-12-10T08:39:56Z</time>
      </trkpt>
      <trkpt lat="44.98555" lon="4.5333">
        <ele>224</ele>
        <time>2015-12-10T08:40:00Z</time>
      </trkpt>
      <trkpt lat="44.98555" lon="4.5332">
        <ele>221</ele>
        <time>2015-12-10T08:40:04Z</time>
      </trkpt>
      <trkpt lat="44.98551" lon="4.53312">
        <ele>218</ele>
        <time>2015-12-10T08:40:09Z</time>
      </trkpt>
      <trkpt lat="44.98551" lon="4.53301">
        <ele>214</ele>
        <time>2015-12-10T08:40:16Z</time>
      </trkpt>
      <trkpt lat="44.98551" lon="4.53291">
        <ele>209</ele>
        <time>2015-12-10T08:40:23Z</time>
      </trkpt>
      <trkpt lat="44.98549" lon="4.53281">
        <ele>206</ele>
        <time>2015-12-10T08:40:28Z</time>
      </trkpt>
      <trkpt lat="44.98546" lon="4.53272">
        <ele>203</ele>
        <time>2015-12-10T08:40:32Z</time>
      </trkpt>
      <trkpt lat="44.98541" lon="4.53265">
        <ele>200</ele>
        <time>2015-12-10T08:40:37Z</time>
      </trkpt>
      <trkpt lat="44.98534" lon="4.53243">
        <ele>196</ele>
        <time>2015-12-10T08:40:42Z</time>
      </trkpt>
      <trkpt lat="44.98532" lon="4.53237">
        <ele>195</ele>
        <time>2015-12-10T08:40:44Z</time>
      </trkpt>
      <trkpt lat="44.98527" lon="4.53227">
        <ele>192</ele>
        <time>2015-12-10T08:40:48Z</time>
      </trkpt>
      <trkpt lat="44.98521" lon="4.5322">
        <ele>188</ele>
        <time>2015-12-10T08:40:53Z</time>
      </trkpt>
      <trkpt lat="44.98514" lon="4.53212">
        <ele>185</ele>
        <time>2015-12-10T08:40:57Z</time>
      </trkpt>
      <trkpt lat="44.98503" lon="4.53211">
        <ele>182</ele>
        <time>2015-12-10T08:41:01Z</time>
      </trkpt>
      <trkpt lat="44.98496" lon="4.53209">
        <ele>180</ele>
        <time>2015-12-10T08:41:04Z</time>
      </trkpt>
      <trkpt lat="44.98488" lon="4.5321">
        <ele>177</ele>
        <time>2015-12-10T08:41:08Z</time>
      </trkpt>
      <trkpt lat="44.98478" lon="4.53203">
        <ele>175</ele>
        <time>2015-12-10T08:41:12Z</time>
      </trkpt>
      <trkpt lat="44.98471" lon="4.53194">
        <ele>172</ele>
        <time>2015-12-10T08:41:16Z</time>
      </trkpt>
      <trkpt lat="44.98463" lon="4.53187">
        <ele>169</ele>
        <time>2015-12-10T08:41:21Z</time>
      </trkpt>
      <trkpt lat="44.98456" lon="4.53182">
        <ele>167</ele>
        <time>2015-12-10T08:41:26Z</time>
      </trkpt>
      <trkpt lat="44.98445" lon="4.53179">
        <ele>166</ele>
        <time>2015-12-10T08:41:30Z</time>
      </trkpt>
      <trkpt lat="44.98438" lon="4.53174">
        <ele>165</ele>
        <time>2015-12-10T08:41:33Z</time>
      </trkpt>
      <trkpt lat="44.98434" lon="4.5317">
        <ele>164</ele>
        <time>2015-12-10T08:41:36Z</time>
      </trkpt>
      <trkpt lat="44.98429" lon="4.5317">
        <ele>178</ele>
        <time>2015-12-10T08:41:40Z</time>
      </trkpt>
      <trkpt lat="44.98427" lon="4.53164">
        <ele>197</ele>
        <time>2015-12-10T08:41:46Z</time>
      </trkpt>
      <trkpt lat="44.98412" lon="4.53124">
        <ele>232</ele>
        <time>2015-12-10T08:41:51Z</time>
      </trkpt>
      <trkpt lat="44.98412" lon="4.53102">
        <ele>238</ele>
        <time>2015-12-10T08:41:54Z</time>
      </trkpt>
      <trkpt lat="44.98403" lon="4.53081">
        <ele>252</ele>
        <time>2015-12-10T08:41:59Z</time>
      </trkpt>
      <trkpt lat="44.98396" lon="4.53068">
        <ele>259</ele>
        <time>2015-12-10T08:42:03Z</time>
      </trkpt>
      <trkpt lat="44.9838" lon="4.53029">
        <ele>278</ele>
        <time>2015-12-10T08:42:07Z</time>
      </trkpt>
      <trkpt lat="44.98362" lon="4.52996">
        <ele>296</ele>
        <time>2015-12-10T08:42:11Z</time>
      </trkpt>
      <trkpt lat="44.98349" lon="4.52982">
        <ele>303</ele>
        <time>2015-12-10T08:42:15Z</time>
      </trkpt>
      <trkpt lat="44.98343" lon="4.52985">
        <ele>303</ele>
        <time>2015-12-10T08:42:19Z</time>
      </trkpt>
      <trkpt lat="44.98332" lon="4.52985">
        <ele>302</ele>
        <time>2015-12-10T08:42:23Z</time>
      </trkpt>
      <trkpt lat="44.98322" lon="4.52983">
        <ele>301</ele>
        <time>2015-12-10T08:42:28Z</time>
      </trkpt>
      <trkpt lat="44.98329" lon="4.52978">
        <ele>295</ele>
        <time>2015-12-10T08:42:46Z</time>
      </trkpt>
      <trkpt lat="44.98337" lon="4.52977">
        <ele>292</ele>
        <time>2015-12-10T08:42:54Z</time>
      </trkpt>
      <trkpt lat="44.98342" lon="4.52986">
        <ele>290</ele>
        <time>2015-12-10T08:43:02Z</time>
      </trkpt>
      <trkpt lat="44.98346" lon="4.52997">
        <ele>287</ele>
        <time>2015-12-10T08:43:08Z</time>
      </trkpt>
      <trkpt lat="44.9835" lon="4.53007">
        <ele>284</ele>
        <time>2015-12-10T08:43:15Z</time>
      </trkpt>
      <trkpt lat="44.98351" lon="4.53012">
        <ele>281</ele>
        <time>2015-12-10T08:43:23Z</time>
      </trkpt>
      <trkpt lat="44.98348" lon="4.53023">
        <ele>277</ele>
        <time>2015-12-10T08:43:32Z</time>
      </trkpt>
      <trkpt lat="44.98343" lon="4.53029">
        <ele>276</ele>
        <time>2015-12-10T08:43:40Z</time>
      </trkpt>
      <trkpt lat="44.98337" lon="4.53031">
        <ele>276</ele>
        <time>2015-12-10T08:43:45Z</time>
      </trkpt>
      <trkpt lat="44.98343" lon="4.5304">
        <ele>272</ele>
        <time>2015-12-10T08:44:12Z</time>
      </trkpt>
      <trkpt lat="44.98349" lon="4.53045">
        <ele>269</ele>
        <time>2015-12-10T08:44:22Z</time>
      </trkpt>
      <trkpt lat="44.98355" lon="4.53049">
        <ele>268</ele>
        <time>2015-12-10T08:44:28Z</time>
      </trkpt>
      <trkpt lat="44.9836" lon="4.53057">
        <ele>265</ele>
        <time>2015-12-10T08:44:35Z</time>
      </trkpt>
      <trkpt lat="44.98362" lon="4.53067">
        <ele>263</ele>
        <time>2015-12-10T08:44:41Z</time>
      </trkpt>
      <trkpt lat="44.98366" lon="4.53077">
        <ele>261</ele>
        <time>2015-12-10T08:44:46Z</time>
      </trkpt>
      <trkpt lat="44.98371" lon="4.53084">
        <ele>260</ele>
        <time>2015-12-10T08:44:52Z</time>
      </trkpt>
      <trkpt lat="44.98378" lon="4.53091">
        <ele>258</ele>
        <time>2015-12-10T08:44:58Z</time>
      </trkpt>
      <trkpt lat="44.9838" lon="4.53103">
        <ele>256</ele>
        <time>2015-12-10T08:45:06Z</time>
      </trkpt>
      <trkpt lat="44.9838" lon="4.53105">
        <ele>255</ele>
        <time>2015-12-10T08:45:24Z</time>
      </trkpt>
      <trkpt lat="44.98546" lon="4.52819">
        <ele>153</ele>
        <time>2015-12-10T08:45:28Z</time>
      </trkpt>
      <trkpt lat="44.98549" lon="4.52827">
        <ele>155</ele>
        <time>2015-12-10T08:45:33Z</time>
      </trkpt>
      <trkpt lat="44.98557" lon="4.52836">
        <ele>158</ele>
        <time>2015-12-10T08:45:37Z</time>
      </trkpt>
      <trkpt lat="44.98566" lon="4.52839">
        <ele>159</ele>
        <time>2015-12-10T08:45:45Z</time>
      </trkpt>
      <trkpt lat="44.98576" lon="4.52838">
        <ele>160</ele>
        <time>2015-12-10T08:45:50Z</time>
      </trkpt>
      <trkpt lat="44.98585" lon="4.52836">
        <ele>162</ele>
        <time>2015-12-10T08:45:55Z</time>
      </trkpt>
      <trkpt lat="44.98593" lon="4.52833">
        <ele>163</ele>
        <time>2015-12-10T08:46:00Z</time>
      </trkpt>
      <trkpt lat="44.98601" lon="4.52832">
        <ele>163</ele>
        <time>2015-12-10T08:46:05Z</time>
      </trkpt>
      <trkpt lat="44.98612" lon="4.52829">
        <ele>164</ele>
        <time>2015-12-10T08:46:09Z</time>
      </trkpt>
      <trkpt lat="44.98618" lon="4.52822">
        <ele>166</ele>
        <time>2015-12-10T08:46:14Z</time>
      </trkpt>
      <trkpt lat="44.98629" lon="4.52816">
        <ele>172</ele>
        <time>2015-12-10T08:46:18Z</time>
      </trkpt>
      <trkpt lat="44.98636" lon="4.52814">
        <ele>173</ele>
        <time>2015-12-10T08:46:22Z</time>
      </trkpt>
      <trkpt lat="44.98644" lon="4.52809">
        <ele>176</ele>
        <time>2015-12-10T08:46:29Z</time>
      </trkpt>
      <trkpt lat="44.98652" lon="4.52812">
        <ele>179</ele>
        <time>2015-12-10T08:46:38Z</time>
      </trkpt>
      <trkpt lat="44.9866" lon="4.52807">
        <ele>180</ele>
        <time>2015-12-10T08:46:46Z</time>
      </trkpt>
      <trkpt lat="44.98667" lon="4.528">
        <ele>180</ele>
        <time>2015-12-10T08:46:53Z</time>
      </trkpt>
      <trkpt lat="44.98673" lon="4.52793">
        <ele>181</ele>
        <time>2015-12-10T08:47:02Z</time>
      </trkpt>
      <trkpt lat="44.98682" lon="4.52792">
        <ele>183</ele>
        <time>2015-12-10T08:47:07Z</time>
      </trkpt>
      <trkpt lat="44.9869" lon="4.52789">
        <ele>185</ele>
        <time>2015-12-10T08:47:13Z</time>
      </trkpt>
      <trkpt lat="44.98699" lon="4.52782">
        <ele>187</ele>
        <time>2015-12-10T08:47:17Z</time>
      </trkpt>
      <trkpt lat="44.98699" lon="4.52782">
        <ele>187</ele>
        <time>2015-12-10T08:47:27Z</time>
      </trkpt>
      <trkpt lat="44.98709" lon="4.52776">
        <ele>202</ele>
        <time>2015-12-10T08:47:32Z</time>
      </trkpt>
      <trkpt lat="44.98716" lon="4.52772">
        <ele>210</ele>
        <time>2015-12-10T08:47:57Z</time>
      </trkpt>
      <trkpt lat="44.98723" lon="4.52768">
        <ele>211</ele>
        <time>2015-12-10T08:48:06Z</time>
      </trkpt>
      <trkpt lat="44.98729" lon="4.52762">
        <ele>211</ele>
        <time>2015-12-10T08:48:11Z</time>
      </trkpt>
      <trkpt lat="44.98737" lon="4.52757">
        <ele>211</ele>
        <time>2015-12-10T08:48:17Z</time>
      </trkpt>
      <trkpt lat="44.98743" lon="4.52751">
        <ele>210</ele>
        <time>2015-12-10T08:48:21Z</time>
      </trkpt>
      <trkpt lat="44.98747" lon="4.52743">
        <ele>210</ele>
        <time>2015-12-10T08:48:25Z</time>
      </trkpt>
      <trkpt lat="44.98754" lon="4.52737">
        <ele>210</ele>
        <time>2015-12-10T08:48:29Z</time>
      </trkpt>
      <trkpt lat="44.98763" lon="4.5273">
        <ele>210</ele>
        <time>2015-12-10T08:48:34Z</time>
      </trkpt>
      <trkpt lat="44.98773" lon="4.52726">
        <ele>209</ele>
        <time>2015-12-10T08:48:39Z</time>
      </trkpt>
      <trkpt lat="44.9878" lon="4.52722">
        <ele>209</ele>
        <time>2015-12-10T08:48:42Z</time>
      </trkpt>
      <trkpt lat="44.98785" lon="4.52718">
        <ele>208</ele>
        <time>2015-12-10T08:48:46Z</time>
      </trkpt>
      <trkpt lat="44.98797" lon="4.52708">
        <ele>207</ele>
        <time>2015-12-10T08:48:51Z</time>
      </trkpt>
      <trkpt lat="44.98806" lon="4.52704">
        <ele>206</ele>
        <time>2015-12-10T08:48:55Z</time>
      </trkpt>
      <trkpt lat="44.98813" lon="4.52698">
        <ele>205</ele>
        <time>2015-12-10T08:48:59Z</time>
      </trkpt>
      <trkpt lat="44.98827" lon="4.52687">
        <ele>204</ele>
        <time>2015-12-10T08:49:04Z</time>
      </trkpt>
      <trkpt lat="44.98839" lon="4.52678">
        <ele>202</ele>
        <time>2015-12-10T08:49:09Z</time>
      </trkpt>
      <trkpt lat="44.98851" lon="4.52672">
        <ele>199</ele>
        <time>2015-12-10T08:49:14Z</time>
      </trkpt>
      <trkpt lat="44.98857" lon="4.52666">
        <ele>197</ele>
        <time>2015-12-10T08:49:17Z</time>
      </trkpt>
      <trkpt lat="44.98865" lon="4.52656">
        <ele>193</ele>
        <time>2015-12-10T08:49:22Z</time>
      </trkpt>
      <trkpt lat="44.98873" lon="4.52647">
        <ele>190</ele>
        <time>2015-12-10T08:49:27Z</time>
      </trkpt>
      <trkpt lat="44.98879" lon="4.52645">
        <ele>187</ele>
        <time>2015-12-10T08:49:31Z</time>
      </trkpt>
      <trkpt lat="44.98886" lon="4.52644">
        <ele>184</ele>
        <time>2015-12-10T08:49:35Z</time>
      </trkpt>
      <trkpt lat="44.98892" lon="4.5264">
        <ele>181</ele>
        <time>2015-12-10T08:49:39Z</time>
      </trkpt>
      <trkpt lat="44.98903" lon="4.52637">
        <ele>179</ele>
        <time>2015-12-10T08:49:43Z</time>
      </trkpt>
      <trkpt lat="44.98916" lon="4.52632">
        <ele>176</ele>
        <time>2015-12-10T08:49:47Z</time>
      </trkpt>
      <trkpt lat="44.98922" lon="4.52628">
        <ele>174</ele>
        <time>2015-12-10T08:49:50Z</time>
      </trkpt>
      <trkpt lat="44.9893" lon="4.52621">
        <ele>172</ele>
        <time>2015-12-10T08:49:54Z</time>
      </trkpt>
      <trkpt lat="44.9894" lon="4.52614">
        <ele>169</ele>
        <time>2015-12-10T08:49:59Z</time>
      </trkpt>
      <trkpt lat="44.98945" lon="4.52609">
        <ele>167</ele>
        <time>2015-12-10T08:50:02Z</time>
      </trkpt>
      <trkpt lat="44.98952" lon="4.52597">
        <ele>164</ele>
        <time>2015-12-10T08:50:07Z</time>
      </trkpt>
      <trkpt lat="44.9896" lon="4.52589">
        <ele>161</ele>
        <time>2015-12-10T08:50:12Z</time>
      </trkpt>
      <trkpt lat="44.98938" lon="4.52627">
        <ele>173</ele>
        <time>2015-12-10T08:50:16Z</time>
      </trkpt>
      <trkpt lat="44.98926" lon="4.5265">
        <ele>183</ele>
        <time>2015-12-10T08:50:19Z</time>
      </trkpt>
      <trkpt lat="44.98945" lon="4.52654">
        <ele>192</ele>
        <time>2015-12-10T08:50:23Z</time>
      </trkpt>
      <trkpt lat="44.98955" lon="4.52658">
        <ele>198</ele>
        <time>2015-12-10T08:50:26Z</time>
      </trkpt>
      <trkpt lat="44.98971" lon="4.5266">
        <ele>212</ele>
        <time>2015-12-10T08:50:30Z</time>
      </trkpt>
      <trkpt lat="44.98982" lon="4.52659">
        <ele>219</ele>
        <time>2015-12-10T08:50:33Z</time>
      </trkpt>
      <trkpt lat="44.99005" lon="4.52657">
        <ele>239</ele>
        <time>2015-12-10T08:50:37Z</time>
      </trkpt>
      <trkpt lat="44.99015" lon="4.52653">
        <ele>247</ele>
        <time>2015-12-10T08:50:42Z</time>
      </trkpt>
      <trkpt lat="44.99024" lon="4.52654">
        <ele>255</ele>
        <time>2015-12-10T08:50:47Z</time>
      </trkpt>
      <trkpt lat="44.99031" lon="4.52657">
        <ele>261</ele>
        <time>2015-12-10T08:50:55Z</time>
      </trkpt>
      <trkpt lat="44.99038" lon="4.52658">
        <ele>265</ele>
        <time>2015-12-10T08:50:59Z</time>
      </trkpt>
      <trkpt lat="44.99045" lon="4.52655">
        <ele>270</ele>
        <time>2015-12-10T08:51:03Z</time>
      </trkpt>
      <trkpt lat="44.99054" lon="4.52652">
        <ele>273</ele>
        <time>2015-12-10T08:51:07Z</time>
      </trkpt>
      <trkpt lat="44.99065" lon="4.52647">
        <ele>277</ele>
        <time>2015-12-10T08:51:11Z</time>
      </trkpt>
      <trkpt lat="44.99078" lon="4.52638">
        <ele>282</ele>
        <time>2015-12-10T08:51:16Z</time>
      </trkpt>
      <trkpt lat="44.99087" lon="4.5263">
        <ele>287</ele>
        <time>2015-12-10T08:51:20Z</time>
      </trkpt>
      <trkpt lat="44.99095" lon="4.52624">
        <ele>290</ele>
        <time>2015-12-10T08:51:23Z</time>
      </trkpt>
      <trkpt lat="44.99106" lon="4.52605">
        <ele>296</ele>
        <time>2015-12-10T08:51:28Z</time>
      </trkpt>
      <trkpt lat="44.99114" lon="4.52595">
        <ele>299</ele>
        <time>2015-12-10T08:51:31Z</time>
      </trkpt>
      <trkpt lat="44.99118" lon="4.52589">
        <ele>303</ele>
        <time>2015-12-10T08:51:34Z</time>
      </trkpt>
      <trkpt lat="44.99128" lon="4.52585">
        <ele>308</ele>
        <time>2015-12-10T08:51:38Z</time>
      </trkpt>
      <trkpt lat="44.99136" lon="4.52578">
        <ele>310</ele>
        <time>2015-12-10T08:51:42Z</time>
      </trkpt>
      <trkpt lat="44.99147" lon="4.52574">
        <ele>312</ele>
        <time>2015-12-10T08:51:46Z</time>
      </trkpt>
      <trkpt lat="44.99155" lon="4.5257">
        <ele>314</ele>
        <time>2015-12-10T08:51:49Z</time>
      </trkpt>
      <trkpt lat="44.99162" lon="4.52565">
        <ele>316</ele>
        <time>2015-12-10T08:51:53Z</time>
      </trkpt>
      <trkpt lat="44.9917" lon="4.5256">
        <ele>318</ele>
        <time>2015-12-10T08:51:57Z</time>
      </trkpt>
      <trkpt lat="44.99179" lon="4.52555">
        <ele>320</ele>
        <time>2015-12-10T08:52:01Z</time>
      </trkpt>
      <trkpt lat="44.99189" lon="4.52551">
        <ele>322</ele>
        <time>2015-12-10T08:52:06Z</time>
      </trkpt>
      <trkpt lat="44.99196" lon="4.52545">
        <ele>323</ele>
        <time>2015-12-10T08:52:10Z</time>
      </trkpt>
      <trkpt lat="44.99201" lon="4.52539">
        <ele>323</ele>
        <time>2015-12-10T08:52:13Z</time>
      </trkpt>
      <trkpt lat="44.99208" lon="4.5253">
        <ele>323</ele>
        <time>2015-12-10T08:52:18Z</time>
      </trkpt>
      <trkpt lat="44.99216" lon="4.5252">
        <ele>323</ele>
        <time>2015-12-10T08:52:23Z</time>
      </trkpt>
      <trkpt lat="44.99224" lon="4.52513">
        <ele>323</ele>
        <time>2015-12-10T08:52:27Z</time>
      </trkpt>
      <trkpt lat="44.99232" lon="4.52508">
        <ele>323</ele>
        <time>2015-12-10T08:52:32Z</time>
      </trkpt>
      <trkpt lat="44.9924" lon="4.52507">
        <ele>322</ele>
        <time>2015-12-10T08:52:37Z</time>
      </trkpt>
      <trkpt lat="44.99251" lon="4.52509">
        <ele>320</ele>
        <time>2015-12-10T08:52:42Z</time>
      </trkpt>
      <trkpt lat="44.99261" lon="4.52507">
        <ele>320</ele>
        <time>2015-12-10T08:52:46Z</time>
      </trkpt>
      <trkpt lat="44.99271" lon="4.52502">
        <ele>319</ele>
        <time>2015-12-10T08:52:50Z</time>
      </trkpt>
      <trkpt lat="44.99281" lon="4.52493">
        <ele>318</ele>
        <time>2015-12-10T08:52:54Z</time>
      </trkpt>
      <trkpt lat="44.99288" lon="4.5248">
        <ele>316</ele>
        <time>2015-12-10T08:52:58Z</time>
      </trkpt>
      <trkpt lat="44.99297" lon="4.5247">
        <ele>316</ele>
        <time>2015-12-10T08:53:02Z</time>
      </trkpt>
      <trkpt lat="44.99307" lon="4.52467">
        <ele>315</ele>
        <time>2015-12-10T08:53:06Z</time>
      </trkpt>
      <trkpt lat="44.99319" lon="4.5246">
        <ele>314</ele>
        <time>2015-12-10T08:53:11Z</time>
      </trkpt>
      <trkpt lat="44.99327" lon="4.52455">
        <ele>312</ele>
        <time>2015-12-10T08:53:15Z</time>
      </trkpt>
      <trkpt lat="44.99331" lon="4.52444">
        <ele>310</ele>
        <time>2015-12-10T08:53:19Z</time>
      </trkpt>
      <trkpt lat="44.99332" lon="4.52437">
        <ele>310</ele>
        <time>2015-12-10T08:53:22Z</time>
      </trkpt>
      <trkpt lat="44.99333" lon="4.52423">
        <ele>309</ele>
        <time>2015-12-10T08:53:25Z</time>
      </trkpt>
      <trkpt lat="44.99333" lon="4.52408">
        <ele>308</ele>
        <time>2015-12-10T08:53:29Z</time>
      </trkpt>
      <trkpt lat="44.99331" lon="4.52395">
        <ele>305</ele>
        <time>2015-12-10T08:53:35Z</time>
      </trkpt>
      <trkpt lat="44.99333" lon="4.52384">
        <ele>303</ele>
        <time>2015-12-10T08:53:41Z</time>
      </trkpt>
      <trkpt lat="44.99335" lon="4.52373">
        <ele>301</ele>
        <time>2015-12-10T08:53:48Z</time>
      </trkpt>
      <trkpt lat="44.99337" lon="4.52365">
        <ele>299</ele>
        <time>2015-12-10T08:53:51Z</time>
      </trkpt>
      <trkpt lat="44.99337" lon="4.52352">
        <ele>298</ele>
        <time>2015-12-10T08:53:55Z</time>
      </trkpt>
      <trkpt lat="44.99334" lon="4.52334">
        <ele>297</ele>
        <time>2015-12-10T08:53:59Z</time>
      </trkpt>
      <trkpt lat="44.9933" lon="4.52317">
        <ele>295</ele>
        <time>2015-12-10T08:54:03Z</time>
      </trkpt>
      <trkpt lat="44.99327" lon="4.52307">
        <ele>294</ele>
        <time>2015-12-10T08:54:05Z</time>
      </trkpt>
      <trkpt lat="44.99324" lon="4.52292">
        <ele>293</ele>
        <time>2015-12-10T08:54:09Z</time>
      </trkpt>
      <trkpt lat="44.99321" lon="4.52276">
        <ele>292</ele>
        <time>2015-12-10T08:54:12Z</time>
      </trkpt>
      <trkpt lat="44.99316" lon="4.52267">
        <ele>291</ele>
        <time>2015-12-10T08:54:15Z</time>
      </trkpt>
      <trkpt lat="44.99308" lon="4.52242">
        <ele>289</ele>
        <time>2015-12-10T08:54:20Z</time>
      </trkpt>
      <trkpt lat="44.99303" lon="4.52225">
        <ele>288</ele>
        <time>2015-12-10T08:54:24Z</time>
      </trkpt>
      <trkpt lat="44.99299" lon="4.52213">
        <ele>287</ele>
        <time>2015-12-10T08:54:27Z</time>
      </trkpt>
      <trkpt lat="44.99295" lon="4.52198">
        <ele>285</ele>
        <time>2015-12-10T08:54:31Z</time>
      </trkpt>
      <trkpt lat="44.99291" lon="4.52184">
        <ele>284</ele>
        <time>2015-12-10T08:54:35Z</time>
      </trkpt>
      <trkpt lat="44.99284" lon="4.52173">
        <ele>282</ele>
        <time>2015-12-10T08:54:39Z</time>
      </trkpt>
      <trkpt lat="44.99277" lon="4.52161">
        <ele>281</ele>
        <time>2015-12-10T08:54:43Z</time>
      </trkpt>
      <trkpt lat="44.99272" lon="4.52147">
        <ele>279</ele>
        <time>2015-12-10T08:54:47Z</time>
      </trkpt>
      <trkpt lat="44.99266" lon="4.52131">
        <ele>277</ele>
        <time>2015-12-10T08:54:51Z</time>
      </trkpt>
      <trkpt lat="44.9926" lon="4.52116">
        <ele>275</ele>
        <time>2015-12-10T08:54:55Z</time>
      </trkpt>
      <trkpt lat="44.99254" lon="4.52104">
        <ele>274</ele>
        <time>2015-12-10T08:54:58Z</time>
      </trkpt>
      <trkpt lat="44.99249" lon="4.52091">
        <ele>272</ele>
        <time>2015-12-10T08:55:02Z</time>
      </trkpt>
      <trkpt lat="44.99239" lon="4.5208">
        <ele>271</ele>
        <time>2015-12-10T08:55:06Z</time>
      </trkpt>
      <trkpt lat="44.99236" lon="4.52061">
        <ele>271</ele>
        <time>2015-12-10T08:55:10Z</time>
      </trkpt>
      <trkpt lat="44.99234" lon="4.52046">
        <ele>271</ele>
        <time>2015-12-10T08:55:13Z</time>
      </trkpt>
      <trkpt lat="44.99231" lon="4.52032">
        <ele>270</ele>
        <time>2015-12-10T08:55:17Z</time>
      </trkpt>
      <trkpt lat="44.9923" lon="4.52024">
        <ele>269</ele>
        <time>2015-12-10T08:55:20Z</time>
      </trkpt>
      <trkpt lat="44.99231" lon="4.5201">
        <ele>268</ele>
        <time>2015-12-10T08:55:24Z</time>
      </trkpt>
      <trkpt lat="44.99235" lon="4.51999">
        <ele>267</ele>
        <time>2015-12-10T08:55:29Z</time>
      </trkpt>
      <trkpt lat="44.99243" lon="4.5199">
        <ele>266</ele>
        <time>2015-12-10T08:55:34Z</time>
      </trkpt>
      <trkpt lat="44.99251" lon="4.51981">
        <ele>265</ele>
        <time>2015-12-10T08:55:39Z</time>
      </trkpt>
      <trkpt lat="44.99257" lon="4.51971">
        <ele>265</ele>
        <time>2015-12-10T08:55:43Z</time>
      </trkpt>
      <trkpt lat="44.99264" lon="4.51964">
        <ele>263</ele>
        <time>2015-12-10T08:55:48Z</time>
      </trkpt>
      <trkpt lat="44.99272" lon="4.5196">
        <ele>261</ele>
        <time>2015-12-10T08:55:52Z</time>
      </trkpt>
      <trkpt lat="44.99279" lon="4.51956">
        <ele>260</ele>
        <time>2015-12-10T08:55:56Z</time>
      </trkpt>
      <trkpt lat="44.99287" lon="4.51953">
        <ele>258</ele>
        <time>2015-12-10T08:56:00Z</time>
      </trkpt>
      <trkpt lat="44.99296" lon="4.51949">
        <ele>257</ele>
        <time>2015-12-10T08:56:05Z</time>
      </trkpt>
      <trkpt lat="44.99304" lon="4.5195">
        <ele>256</ele>
        <time>2015-12-10T08:56:09Z</time>
      </trkpt>
      <trkpt lat="44.99311" lon="4.51954">
        <ele>255</ele>
        <time>2015-12-10T08:56:13Z</time>
      </trkpt>
      <trkpt lat="44.99322" lon="4.5196">
        <ele>253</ele>
        <time>2015-12-10T08:56:18Z</time>
      </trkpt>
      <trkpt lat="44.99331" lon="4.51966">
        <ele>252</ele>
        <time>2015-12-10T08:56:23Z</time>
      </trkpt>
      <trkpt lat="44.99339" lon="4.5197">
        <ele>250</ele>
        <time>2015-12-10T08:56:28Z</time>
      </trkpt>
      <trkpt lat="44.99346" lon="4.51977">
        <ele>249</ele>
        <time>2015-12-10T08:56:32Z</time>
      </trkpt>
      <trkpt lat="44.99351" lon="4.51978">
        <ele>248</ele>
        <time>2015-12-10T08:56:36Z</time>
      </trkpt>
      <trkpt lat="44.99357" lon="4.51978">
        <ele>247</ele>
        <time>2015-12-10T08:56:39Z</time>
      </trkpt>
      <trkpt lat="44.99372" lon="4.51968">
        <ele>246</ele>
        <time>2015-12-10T08:56:43Z</time>
      </trkpt>
      <trkpt lat="44.99387" lon="4.51956">
        <ele>244</ele>
        <time>2015-12-10T08:56:48Z</time>
      </trkpt>
      <trkpt lat="44.99397" lon="4.51948">
        <ele>243</ele>
        <time>2015-12-10T08:56:52Z</time>
      </trkpt>
      <trkpt lat="44.99403" lon="4.51944">
        <ele>241</ele>
        <time>2015-12-10T08:56:55Z</time>
      </trkpt>
      <trkpt lat="44.9941" lon="4.51939">
        <ele>240</ele>
        <time>2015-12-10T08:56:59Z</time>
      </trkpt>
      <trkpt lat="44.99417" lon="4.51932">
        <ele>238</ele>
        <time>2015-12-10T08:57:05Z</time>
      </trkpt>
      <trkpt lat="44.99422" lon="4.51926">
        <ele>234</ele>
        <time>2015-12-10T08:57:25Z</time>
      </trkpt>
      <trkpt lat="44.99422" lon="4.51926">
        <ele>234</ele>
        <time>2015-12-10T08:57:27Z</time>
      </trkpt>
      <trkpt lat="44.99423" lon="4.51924">
        <ele>233</ele>
        <time>2015-12-10T08:57:28Z</time>
      </trkpt>
      <trkpt lat="44.99426" lon="4.51925">
        <ele>233</ele>
        <time>2015-12-10T08:57:31Z</time>
      </trkpt>
      <trkpt lat="44.99436" lon="4.51929">
        <ele>235</ele>
        <time>2015-12-10T08:57:34Z</time>
      </trkpt>
      <trkpt lat="44.99455" lon="4.5194">
        <ele>240</ele>
        <time>2015-12-10T08:57:37Z</time>
      </trkpt>
      <trkpt lat="44.99455" lon="4.5194">
        <ele>240</ele>
        <time>2015-12-10T08:57:39Z</time>
      </trkpt>
    </trkseg>
  </trk>
</gpx>